<?xml version="1.0" encoding="UTF-8" standalone="no" ?>
<gpx xmlns="http://www.topografix.com/GPX/1/1" xmlns:xsi="http://www.w3.org/2001/XMLSchema-instance" xsi:schemaLocation="http://www.topografix.com/GPX/1/1 http://www.topografix.com/GPX/1/1/gpx.xsd" version="1.1" creator="VisuGPX - https://www.visugpx.com">
  <metadata>
    <name>Plouarzel - Belgrade</name>
    <desc><![CDATA[Arrivée à Belgrade le 11 juillet. 66 jours pédalés. 7 jours de repos.
]]></desc>
  </metadata>
  <trk>
    <name><![CDATA[Sortie à vélo]]></name>
    <extensions>
      <line xmlns="http://www.topografix.com/GPX/gpx_style/0/2">
        <color>0000FF</color>
        <width>4</width>
      </line>
    </extensions>
    <trkseg>
      <trkpt lat="47.42573" lon="-0.52927">
        <ele>65.386432</ele>
        <time>2023-05-09T11:14:00.424Z</time>
      </trkpt>
      <trkpt lat="47.42586" lon="-0.52945">
        <ele>65.386432</ele>
        <time>2023-05-09T11:17:16.445Z</time>
      </trkpt>
      <trkpt lat="47.42584" lon="-0.52973">
        <ele>65.386432</ele>
        <time>2023-05-09T11:23:15.440Z</time>
      </trkpt>
      <trkpt lat="47.42583" lon="-0.52988">
        <ele>65.386432</ele>
        <time>2023-05-09T11:23:20.440Z</time>
      </trkpt>
      <trkpt lat="47.42574" lon="-0.52998">
        <ele>65.386432</ele>
        <time>2023-05-09T11:23:24.438Z</time>
      </trkpt>
      <trkpt lat="47.42564" lon="-0.52998">
        <ele>65.386432</ele>
        <time>2023-05-09T11:23:29.442Z</time>
      </trkpt>
      <trkpt lat="47.42553" lon="-0.52993">
        <ele>65.386432</ele>
        <time>2023-05-09T11:23:34.437Z</time>
      </trkpt>
      <trkpt lat="47.42544" lon="-0.52988">
        <ele>65.386432</ele>
        <time>2023-05-09T11:23:39.438Z</time>
      </trkpt>
      <trkpt lat="47.42536" lon="-0.52979">
        <ele>65.250435</ele>
        <time>2023-05-09T11:23:44.438Z</time>
      </trkpt>
      <trkpt lat="47.4253" lon="-0.52966">
        <ele>65.096235</ele>
        <time>2023-05-09T11:23:49.437Z</time>
      </trkpt>
      <trkpt lat="47.42524" lon="-0.52952">
        <ele>64.94026</ele>
        <time>2023-05-09T11:23:54.434Z</time>
      </trkpt>
      <trkpt lat="47.42517" lon="-0.5294">
        <ele>64.791317</ele>
        <time>2023-05-09T11:23:58.439Z</time>
      </trkpt>
      <trkpt lat="47.42509" lon="-0.52931">
        <ele>64.643451</ele>
        <time>2023-05-09T11:24:02.425Z</time>
      </trkpt>
      <trkpt lat="47.42499" lon="-0.52927">
        <ele>64.498844</ele>
        <time>2023-05-09T11:24:06.434Z</time>
      </trkpt>
      <trkpt lat="47.42489" lon="-0.52924">
        <ele>64.360641</ele>
        <time>2023-05-09T11:24:11.440Z</time>
      </trkpt>
      <trkpt lat="47.42472" lon="-0.52916">
        <ele>64.098896</ele>
        <time>2023-05-09T11:33:57.434Z</time>
      </trkpt>
      <trkpt lat="47.42462" lon="-0.52912">
        <ele>63.95107</ele>
        <time>2023-05-09T11:34:02.431Z</time>
      </trkpt>
      <trkpt lat="47.42453" lon="-0.5291">
        <ele>63.822119</ele>
        <time>2023-05-09T11:34:07.434Z</time>
      </trkpt>
      <trkpt lat="47.42442" lon="-0.52907">
        <ele>63.674068</ele>
        <time>2023-05-09T11:34:11.436Z</time>
      </trkpt>
      <trkpt lat="47.42434" lon="-0.52904">
        <ele>63.54392</ele>
        <time>2023-05-09T11:34:14.427Z</time>
      </trkpt>
      <trkpt lat="47.42424" lon="-0.52899">
        <ele>63.404552</ele>
        <time>2023-05-09T11:34:17.444Z</time>
      </trkpt>
      <trkpt lat="47.42414" lon="-0.52892">
        <ele>63.241659</ele>
        <time>2023-05-09T11:34:21.436Z</time>
      </trkpt>
      <trkpt lat="47.42406" lon="-0.5288">
        <ele>63.079991</ele>
        <time>2023-05-09T11:34:25.434Z</time>
      </trkpt>
      <trkpt lat="47.42399" lon="-0.52866">
        <ele>62.920156</ele>
        <time>2023-05-09T11:34:29.433Z</time>
      </trkpt>
      <trkpt lat="47.42397" lon="-0.52851">
        <ele>62.818281</ele>
        <time>2023-05-09T11:34:33.439Z</time>
      </trkpt>
      <trkpt lat="47.42397" lon="-0.52836">
        <ele>62.780604</ele>
        <time>2023-05-09T11:34:37.433Z</time>
      </trkpt>
      <trkpt lat="47.42396" lon="-0.52822">
        <ele>62.746136</ele>
        <time>2023-05-09T11:34:41.440Z</time>
      </trkpt>
      <trkpt lat="47.42399" lon="-0.5281">
        <ele>62.712272</ele>
        <time>2023-05-09T11:34:47.437Z</time>
      </trkpt>
      <trkpt lat="47.42406" lon="-0.52798">
        <ele>62.673432</ele>
        <time>2023-05-09T11:34:52.435Z</time>
      </trkpt>
      <trkpt lat="47.42411" lon="-0.52783">
        <ele>62.631594</ele>
        <time>2023-05-09T11:34:57.440Z</time>
      </trkpt>
      <trkpt lat="47.42415" lon="-0.52771">
        <ele>62.596774</ele>
        <time>2023-05-09T11:35:00.436Z</time>
      </trkpt>
      <trkpt lat="47.42422" lon="-0.52758">
        <ele>62.558294</ele>
        <time>2023-05-09T11:35:03.436Z</time>
      </trkpt>
      <trkpt lat="47.42428" lon="-0.52749">
        <ele>62.524111</ele>
        <time>2023-05-09T11:35:06.439Z</time>
      </trkpt>
      <trkpt lat="47.42433" lon="-0.52738">
        <ele>62.490237</ele>
        <time>2023-05-09T11:35:09.434Z</time>
      </trkpt>
      <trkpt lat="47.42437" lon="-0.52724">
        <ele>62.452095</ele>
        <time>2023-05-09T11:35:13.433Z</time>
      </trkpt>
      <trkpt lat="47.4244" lon="-0.52707">
        <ele>62.40802</ele>
        <time>2023-05-09T11:35:17.437Z</time>
      </trkpt>
      <trkpt lat="47.42441" lon="-0.52693">
        <ele>62.37357</ele>
        <time>2023-05-09T11:35:21.433Z</time>
      </trkpt>
      <trkpt lat="47.42444" lon="-0.5268">
        <ele>62.340248</ele>
        <time>2023-05-09T11:35:24.433Z</time>
      </trkpt>
      <trkpt lat="47.42448" lon="-0.52665">
        <ele>62.298028</ele>
        <time>2023-05-09T11:35:28.434Z</time>
      </trkpt>
      <trkpt lat="47.42451" lon="-0.52652">
        <ele>62.264366</ele>
        <time>2023-05-09T11:35:31.433Z</time>
      </trkpt>
      <trkpt lat="47.42453" lon="-0.52638">
        <ele>62.22896</ele>
        <time>2023-05-09T11:35:34.431Z</time>
      </trkpt>
      <trkpt lat="47.42455" lon="-0.52622">
        <ele>62.187089</ele>
        <time>2023-05-09T11:35:38.438Z</time>
      </trkpt>
      <trkpt lat="47.42458" lon="-0.52605">
        <ele>62.372618</ele>
        <time>2023-05-09T11:35:42.440Z</time>
      </trkpt>
      <trkpt lat="47.42462" lon="-0.5259">
        <ele>62.694691</ele>
        <time>2023-05-09T11:35:46.439Z</time>
      </trkpt>
      <trkpt lat="47.42466" lon="-0.52574">
        <ele>63.041879</ele>
        <time>2023-05-09T11:35:50.435Z</time>
      </trkpt>
      <trkpt lat="47.42469" lon="-0.52561">
        <ele>63.326959</ele>
        <time>2023-05-09T11:35:54.429Z</time>
      </trkpt>
      <trkpt lat="47.4247" lon="-0.52545">
        <ele>63.658438</ele>
        <time>2023-05-09T11:35:58.420Z</time>
      </trkpt>
      <trkpt lat="47.42469" lon="-0.52532">
        <ele>63.933054</ele>
        <time>2023-05-09T11:36:01.440Z</time>
      </trkpt>
      <trkpt lat="47.4247" lon="-0.52518">
        <ele>64.215073</ele>
        <time>2023-05-09T11:36:04.432Z</time>
      </trkpt>
      <trkpt lat="47.42477" lon="-0.52508">
        <ele>64.504553</ele>
        <time>2023-05-09T11:36:07.433Z</time>
      </trkpt>
      <trkpt lat="47.42486" lon="-0.52506">
        <ele>64.781578</ele>
        <time>2023-05-09T11:36:11.440Z</time>
      </trkpt>
      <trkpt lat="47.42494" lon="-0.52513">
        <ele>65.07845</ele>
        <time>2023-05-09T11:36:38.433Z</time>
      </trkpt>
      <trkpt lat="47.42505" lon="-0.52521">
        <ele>65.440299</ele>
        <time>2023-05-09T11:36:42.434Z</time>
      </trkpt>
      <trkpt lat="47.42515" lon="-0.52528">
        <ele>65.772287</ele>
        <time>2023-05-09T11:36:45.432Z</time>
      </trkpt>
      <trkpt lat="47.42524" lon="-0.52536">
        <ele>66.096773</ele>
        <time>2023-05-09T11:36:48.439Z</time>
      </trkpt>
      <trkpt lat="47.42534" lon="-0.52542">
        <ele>66.42365</ele>
        <time>2023-05-09T11:36:51.438Z</time>
      </trkpt>
      <trkpt lat="47.42544" lon="-0.52549">
        <ele>66.75019</ele>
        <time>2023-05-09T11:36:54.442Z</time>
      </trkpt>
      <trkpt lat="47.42555" lon="-0.52554">
        <ele>67.100185</ele>
        <time>2023-05-09T11:36:57.434Z</time>
      </trkpt>
      <trkpt lat="47.42565" lon="-0.5256">
        <ele>67.426509</ele>
        <time>2023-05-09T11:37:00.434Z</time>
      </trkpt>
      <trkpt lat="47.42574" lon="-0.52567">
        <ele>67.810836</ele>
        <time>2023-05-09T11:37:03.445Z</time>
      </trkpt>
      <trkpt lat="47.42583" lon="-0.52574">
        <ele>68.260216</ele>
        <time>2023-05-09T11:37:06.432Z</time>
      </trkpt>
      <trkpt lat="47.42591" lon="-0.5258">
        <ele>68.671204</ele>
        <time>2023-05-09T11:37:09.434Z</time>
      </trkpt>
      <trkpt lat="47.426" lon="-0.52587">
        <ele>69.141249</ele>
        <time>2023-05-09T11:37:12.438Z</time>
      </trkpt>
      <trkpt lat="47.42609" lon="-0.52594">
        <ele>69.609871</ele>
        <time>2023-05-09T11:37:15.441Z</time>
      </trkpt>
      <trkpt lat="47.42617" lon="-0.52602">
        <ele>70.063455</ele>
        <time>2023-05-09T11:37:18.434Z</time>
      </trkpt>
      <trkpt lat="47.42627" lon="-0.52611">
        <ele>70.572786</ele>
        <time>2023-05-09T11:37:21.439Z</time>
      </trkpt>
      <trkpt lat="47.42637" lon="-0.52618">
        <ele>71.078337</ele>
        <time>2023-05-09T11:37:24.432Z</time>
      </trkpt>
      <trkpt lat="47.42647" lon="-0.52625">
        <ele>71.600397</ele>
        <time>2023-05-09T11:37:27.437Z</time>
      </trkpt>
      <trkpt lat="47.42655" lon="-0.52633">
        <ele>72.060459</ele>
        <time>2023-05-09T11:37:30.433Z</time>
      </trkpt>
      <trkpt lat="47.42664" lon="-0.5264">
        <ele>72.496343</ele>
        <time>2023-05-09T11:37:33.433Z</time>
      </trkpt>
      <trkpt lat="47.42672" lon="-0.52646">
        <ele>72.920139</ele>
        <time>2023-05-09T11:37:36.435Z</time>
      </trkpt>
      <trkpt lat="47.42681" lon="-0.52652">
        <ele>73.361622</ele>
        <time>2023-05-09T11:37:39.441Z</time>
      </trkpt>
      <trkpt lat="47.42689" lon="-0.52658">
        <ele>73.780969</ele>
        <time>2023-05-09T11:37:42.436Z</time>
      </trkpt>
      <trkpt lat="47.427" lon="-0.52665">
        <ele>74.310029</ele>
        <time>2023-05-09T11:37:46.432Z</time>
      </trkpt>
      <trkpt lat="47.42709" lon="-0.52672">
        <ele>74.791432</ele>
        <time>2023-05-09T11:37:49.433Z</time>
      </trkpt>
      <trkpt lat="47.42719" lon="-0.5268">
        <ele>75.298358</ele>
        <time>2023-05-09T11:37:52.447Z</time>
      </trkpt>
      <trkpt lat="47.42729" lon="-0.52688">
        <ele>75.84501</ele>
        <time>2023-05-09T11:37:55.439Z</time>
      </trkpt>
      <trkpt lat="47.42739" lon="-0.52695">
        <ele>75.767383</ele>
        <time>2023-05-09T11:37:58.443Z</time>
      </trkpt>
      <trkpt lat="47.42749" lon="-0.52702">
        <ele>75.685619</ele>
        <time>2023-05-09T11:38:01.439Z</time>
      </trkpt>
      <trkpt lat="47.4276" lon="-0.5271">
        <ele>75.588366</ele>
        <time>2023-05-09T11:38:04.438Z</time>
      </trkpt>
      <trkpt lat="47.42771" lon="-0.52717">
        <ele>75.495855</ele>
        <time>2023-05-09T11:38:07.432Z</time>
      </trkpt>
      <trkpt lat="47.42782" lon="-0.52726">
        <ele>75.39534</ele>
        <time>2023-05-09T11:38:10.430Z</time>
      </trkpt>
      <trkpt lat="47.42794" lon="-0.52734">
        <ele>75.295979</ele>
        <time>2023-05-09T11:38:13.433Z</time>
      </trkpt>
      <trkpt lat="47.42804" lon="-0.5274">
        <ele>75.212612</ele>
        <time>2023-05-09T11:38:16.439Z</time>
      </trkpt>
      <trkpt lat="47.42814" lon="-0.52746">
        <ele>75.129646</ele>
        <time>2023-05-09T11:38:19.435Z</time>
      </trkpt>
      <trkpt lat="47.42825" lon="-0.52752">
        <ele>75.040677</ele>
        <time>2023-05-09T11:38:22.432Z</time>
      </trkpt>
      <trkpt lat="47.42837" lon="-0.52757">
        <ele>74.945998</ele>
        <time>2023-05-09T11:38:25.436Z</time>
      </trkpt>
      <trkpt lat="47.42848" lon="-0.52763">
        <ele>74.851619</ele>
        <time>2023-05-09T11:38:28.431Z</time>
      </trkpt>
      <trkpt lat="47.42858" lon="-0.52768">
        <ele>74.769667</ele>
        <time>2023-05-09T11:38:31.438Z</time>
      </trkpt>
      <trkpt lat="47.42868" lon="-0.52772">
        <ele>74.692607</ele>
        <time>2023-05-09T11:38:34.432Z</time>
      </trkpt>
      <trkpt lat="47.42879" lon="-0.52776">
        <ele>74.601978</ele>
        <time>2023-05-09T11:38:37.437Z</time>
      </trkpt>
      <trkpt lat="47.42892" lon="-0.52783">
        <ele>74.493438</ele>
        <time>2023-05-09T11:38:40.435Z</time>
      </trkpt>
      <trkpt lat="47.42901" lon="-0.52786">
        <ele>74.281345</ele>
        <time>2023-05-09T11:38:42.437Z</time>
      </trkpt>
      <trkpt lat="47.42911" lon="-0.52788">
        <ele>73.951722</ele>
        <time>2023-05-09T11:38:44.434Z</time>
      </trkpt>
      <trkpt lat="47.42923" lon="-0.52789">
        <ele>73.529188</ele>
        <time>2023-05-09T11:38:47.432Z</time>
      </trkpt>
      <trkpt lat="47.42935" lon="-0.52792">
        <ele>73.106877</ele>
        <time>2023-05-09T11:38:50.437Z</time>
      </trkpt>
      <trkpt lat="47.42946" lon="-0.52794">
        <ele>72.726544</ele>
        <time>2023-05-09T11:38:53.436Z</time>
      </trkpt>
      <trkpt lat="47.42955" lon="-0.52795">
        <ele>72.387463</ele>
        <time>2023-05-09T11:38:56.440Z</time>
      </trkpt>
      <trkpt lat="47.42968" lon="-0.52795">
        <ele>71.937056</ele>
        <time>2023-05-09T11:39:00.436Z</time>
      </trkpt>
      <trkpt lat="47.42979" lon="-0.52796">
        <ele>71.57317</ele>
        <time>2023-05-09T11:39:03.437Z</time>
      </trkpt>
      <trkpt lat="47.42984" lon="-0.52784">
        <ele>71.230694</ele>
        <time>2023-05-09T11:39:15.432Z</time>
      </trkpt>
      <trkpt lat="47.42985" lon="-0.52767">
        <ele>70.820863</ele>
        <time>2023-05-09T11:39:18.438Z</time>
      </trkpt>
      <trkpt lat="47.42986" lon="-0.52752">
        <ele>70.480092</ele>
        <time>2023-05-09T11:39:20.433Z</time>
      </trkpt>
      <trkpt lat="47.42989" lon="-0.52736">
        <ele>70.083372</ele>
        <time>2023-05-09T11:39:23.432Z</time>
      </trkpt>
      <trkpt lat="47.42987" lon="-0.5272">
        <ele>69.705361</ele>
        <time>2023-05-09T11:39:25.432Z</time>
      </trkpt>
      <trkpt lat="47.42981" lon="-0.52708">
        <ele>69.352906</ele>
        <time>2023-05-09T11:39:28.443Z</time>
      </trkpt>
      <trkpt lat="47.42969" lon="-0.52703">
        <ele>68.912939</ele>
        <time>2023-05-09T11:39:31.437Z</time>
      </trkpt>
      <trkpt lat="47.42957" lon="-0.52699">
        <ele>68.485769</ele>
        <time>2023-05-09T11:39:34.434Z</time>
      </trkpt>
      <trkpt lat="47.42947" lon="-0.52693">
        <ele>68.160778</ele>
        <time>2023-05-09T11:39:37.441Z</time>
      </trkpt>
      <trkpt lat="47.42938" lon="-0.52684">
        <ele>68.049491</ele>
        <time>2023-05-09T11:39:40.428Z</time>
      </trkpt>
      <trkpt lat="47.42931" lon="-0.52671">
        <ele>67.917415</ele>
        <time>2023-05-09T11:39:44.434Z</time>
      </trkpt>
      <trkpt lat="47.42924" lon="-0.52661">
        <ele>67.812915</ele>
        <time>2023-05-09T11:39:47.437Z</time>
      </trkpt>
      <trkpt lat="47.42915" lon="-0.52649">
        <ele>67.686918</ele>
        <time>2023-05-09T11:39:51.436Z</time>
      </trkpt>
      <trkpt lat="47.42911" lon="-0.52637">
        <ele>67.585402</ele>
        <time>2023-05-09T11:39:54.444Z</time>
      </trkpt>
      <trkpt lat="47.42914" lon="-0.52621">
        <ele>67.466759</ele>
        <time>2023-05-09T11:39:58.430Z</time>
      </trkpt>
      <trkpt lat="47.42918" lon="-0.5261">
        <ele>67.366415</ele>
        <time>2023-05-09T11:40:02.439Z</time>
      </trkpt>
      <trkpt lat="47.42919" lon="-0.52596">
        <ele>67.264156</ele>
        <time>2023-05-09T11:40:06.433Z</time>
      </trkpt>
      <trkpt lat="47.42909" lon="-0.52594">
        <ele>67.148654</ele>
        <time>2023-05-09T11:40:11.433Z</time>
      </trkpt>
      <trkpt lat="47.42899" lon="-0.52595">
        <ele>67.038022</ele>
        <time>2023-05-09T11:40:14.439Z</time>
      </trkpt>
      <trkpt lat="47.42887" lon="-0.52599">
        <ele>66.907062</ele>
        <time>2023-05-09T11:40:18.435Z</time>
      </trkpt>
      <trkpt lat="47.42877" lon="-0.52603">
        <ele>66.793368</ele>
        <time>2023-05-09T11:40:21.430Z</time>
      </trkpt>
      <trkpt lat="47.42868" lon="-0.52609">
        <ele>66.683246</ele>
        <time>2023-05-09T11:40:24.436Z</time>
      </trkpt>
      <trkpt lat="47.42858" lon="-0.52613">
        <ele>66.572711</ele>
        <time>2023-05-09T11:40:27.437Z</time>
      </trkpt>
      <trkpt lat="47.42846" lon="-0.52614">
        <ele>66.444175</ele>
        <time>2023-05-09T11:40:31.437Z</time>
      </trkpt>
      <trkpt lat="47.42838" lon="-0.52603">
        <ele>66.324836</ele>
        <time>2023-05-09T11:40:35.434Z</time>
      </trkpt>
      <trkpt lat="47.42838" lon="-0.52587">
        <ele>66.229379</ele>
        <time>2023-05-09T11:40:40.436Z</time>
      </trkpt>
      <trkpt lat="47.42841" lon="-0.52572">
        <ele>66.286954</ele>
        <time>2023-05-09T11:40:44.435Z</time>
      </trkpt>
      <trkpt lat="47.42844" lon="-0.52559">
        <ele>66.333339</ele>
        <time>2023-05-09T11:40:47.444Z</time>
      </trkpt>
      <trkpt lat="47.42847" lon="-0.52546">
        <ele>66.380414</ele>
        <time>2023-05-09T11:40:50.438Z</time>
      </trkpt>
      <trkpt lat="47.4285" lon="-0.52532">
        <ele>66.429824</ele>
        <time>2023-05-09T11:40:53.436Z</time>
      </trkpt>
      <trkpt lat="47.42853" lon="-0.52519">
        <ele>66.47901</ele>
        <time>2023-05-09T11:40:56.437Z</time>
      </trkpt>
      <trkpt lat="47.42857" lon="-0.52504">
        <ele>66.535189</ele>
        <time>2023-05-09T11:40:59.437Z</time>
      </trkpt>
      <trkpt lat="47.42861" lon="-0.52489">
        <ele>66.591441</ele>
        <time>2023-05-09T11:41:02.433Z</time>
      </trkpt>
      <trkpt lat="47.42864" lon="-0.52474">
        <ele>66.643804</ele>
        <time>2023-05-09T11:41:05.435Z</time>
      </trkpt>
      <trkpt lat="47.42868" lon="-0.52458">
        <ele>66.703842</ele>
        <time>2023-05-09T11:41:09.440Z</time>
      </trkpt>
      <trkpt lat="47.42872" lon="-0.52441">
        <ele>66.76685</ele>
        <time>2023-05-09T11:41:13.434Z</time>
      </trkpt>
      <trkpt lat="47.42876" lon="-0.52427">
        <ele>66.820963</ele>
        <time>2023-05-09T11:41:16.437Z</time>
      </trkpt>
      <trkpt lat="47.42879" lon="-0.52411">
        <ele>66.876227</ele>
        <time>2023-05-09T11:41:19.439Z</time>
      </trkpt>
      <trkpt lat="47.42883" lon="-0.52397">
        <ele>66.928707</ele>
        <time>2023-05-09T11:41:22.433Z</time>
      </trkpt>
      <trkpt lat="47.42885" lon="-0.52383">
        <ele>66.978279</ele>
        <time>2023-05-09T11:41:25.439Z</time>
      </trkpt>
      <trkpt lat="47.42887" lon="-0.52368">
        <ele>67.033917</ele>
        <time>2023-05-09T11:41:29.436Z</time>
      </trkpt>
      <trkpt lat="47.42891" lon="-0.52353">
        <ele>67.090372</ele>
        <time>2023-05-09T11:41:33.424Z</time>
      </trkpt>
      <trkpt lat="47.42892" lon="-0.52338">
        <ele>67.142523</ele>
        <time>2023-05-09T11:41:37.435Z</time>
      </trkpt>
      <trkpt lat="47.42892" lon="-0.52322">
        <ele>66.964162</ele>
        <time>2023-05-09T11:41:41.432Z</time>
      </trkpt>
      <trkpt lat="47.42893" lon="-0.52306">
        <ele>66.783056</ele>
        <time>2023-05-09T11:41:45.437Z</time>
      </trkpt>
      <trkpt lat="47.42893" lon="-0.52292">
        <ele>66.608636</ele>
        <time>2023-05-09T11:41:48.435Z</time>
      </trkpt>
      <trkpt lat="47.42893" lon="-0.52278">
        <ele>66.440179</ele>
        <time>2023-05-09T11:41:51.437Z</time>
      </trkpt>
      <trkpt lat="47.4289" lon="-0.52264">
        <ele>66.26784</ele>
        <time>2023-05-09T11:41:54.428Z</time>
      </trkpt>
      <trkpt lat="47.4289" lon="-0.52248">
        <ele>66.078572</ele>
        <time>2023-05-09T11:41:57.432Z</time>
      </trkpt>
      <trkpt lat="47.42889" lon="-0.52233">
        <ele>65.897465</ele>
        <time>2023-05-09T11:42:00.430Z</time>
      </trkpt>
      <trkpt lat="47.42888" lon="-0.52218">
        <ele>65.726623</ele>
        <time>2023-05-09T11:42:03.434Z</time>
      </trkpt>
      <trkpt lat="47.42888" lon="-0.52205">
        <ele>65.563051</ele>
        <time>2023-05-09T11:42:06.431Z</time>
      </trkpt>
      <trkpt lat="47.42887" lon="-0.5219">
        <ele>65.391446</ele>
        <time>2023-05-09T11:42:09.431Z</time>
      </trkpt>
      <trkpt lat="47.42886" lon="-0.52176">
        <ele>65.220167</ele>
        <time>2023-05-09T11:42:12.432Z</time>
      </trkpt>
      <trkpt lat="47.42885" lon="-0.52159">
        <ele>65.017811</ele>
        <time>2023-05-09T11:42:15.432Z</time>
      </trkpt>
      <trkpt lat="47.42885" lon="-0.52145">
        <ele>64.842198</ele>
        <time>2023-05-09T11:42:18.441Z</time>
      </trkpt>
      <trkpt lat="47.42884" lon="-0.5213">
        <ele>64.66889</ele>
        <time>2023-05-09T11:42:21.431Z</time>
      </trkpt>
      <trkpt lat="47.42884" lon="-0.52116">
        <ele>64.501319</ele>
        <time>2023-05-09T11:42:24.439Z</time>
      </trkpt>
      <trkpt lat="47.42882" lon="-0.52101">
        <ele>64.321502</ele>
        <time>2023-05-09T11:42:27.441Z</time>
      </trkpt>
      <trkpt lat="47.42881" lon="-0.52086">
        <ele>64.140395</ele>
        <time>2023-05-09T11:42:30.440Z</time>
      </trkpt>
      <trkpt lat="47.4288" lon="-0.5207">
        <ele>63.932591</ele>
        <time>2023-05-09T11:42:33.444Z</time>
      </trkpt>
      <trkpt lat="47.42879" lon="-0.52054">
        <ele>63.53402</ele>
        <time>2023-05-09T11:42:36.444Z</time>
      </trkpt>
      <trkpt lat="47.42878" lon="-0.52038">
        <ele>63.147359</ele>
        <time>2023-05-09T11:42:39.447Z</time>
      </trkpt>
      <trkpt lat="47.42877" lon="-0.52024">
        <ele>62.806581</ele>
        <time>2023-05-09T11:42:42.449Z</time>
      </trkpt>
      <trkpt lat="47.42876" lon="-0.5201">
        <ele>62.472312</ele>
        <time>2023-05-09T11:42:45.442Z</time>
      </trkpt>
      <trkpt lat="47.42874" lon="-0.51996">
        <ele>62.13007</ele>
        <time>2023-05-09T11:42:48.448Z</time>
      </trkpt>
      <trkpt lat="47.42872" lon="-0.5198">
        <ele>61.759904</ele>
        <time>2023-05-09T11:42:51.449Z</time>
      </trkpt>
      <trkpt lat="47.42871" lon="-0.51963">
        <ele>61.346372</ele>
        <time>2023-05-09T11:42:54.447Z</time>
      </trkpt>
      <trkpt lat="47.4287" lon="-0.51944">
        <ele>60.889998</ele>
        <time>2023-05-09T11:42:57.448Z</time>
      </trkpt>
      <trkpt lat="47.42869" lon="-0.51925">
        <ele>60.437108</ele>
        <time>2023-05-09T11:43:00.451Z</time>
      </trkpt>
      <trkpt lat="47.42868" lon="-0.51909">
        <ele>60.043301</ele>
        <time>2023-05-09T11:43:03.444Z</time>
      </trkpt>
      <trkpt lat="47.42867" lon="-0.51893">
        <ele>59.660062</ele>
        <time>2023-05-09T11:43:06.447Z</time>
      </trkpt>
      <trkpt lat="47.42867" lon="-0.51877">
        <ele>59.26998</ele>
        <time>2023-05-09T11:43:09.442Z</time>
      </trkpt>
      <trkpt lat="47.42866" lon="-0.51859">
        <ele>58.845949</ele>
        <time>2023-05-09T11:43:12.450Z</time>
      </trkpt>
      <trkpt lat="47.42865" lon="-0.5184">
        <ele>58.401128</ele>
        <time>2023-05-09T11:43:15.453Z</time>
      </trkpt>
      <trkpt lat="47.42864" lon="-0.51822">
        <ele>57.948003</ele>
        <time>2023-05-09T11:43:18.450Z</time>
      </trkpt>
      <trkpt lat="47.41915" lon="-0.43265">
        <ele>65.945099</ele>
        <time>2023-05-09T12:08:21.427Z</time>
      </trkpt>
      <trkpt lat="47.41917" lon="-0.43251">
        <ele>65.773793</ele>
        <time>2023-05-09T12:09:26.444Z</time>
      </trkpt>
      <trkpt lat="47.41914" lon="-0.43237">
        <ele>65.600906</ele>
        <time>2023-05-09T12:09:30.449Z</time>
      </trkpt>
      <trkpt lat="47.41912" lon="-0.43224">
        <ele>65.429639</ele>
        <time>2023-05-09T12:09:33.447Z</time>
      </trkpt>
      <trkpt lat="47.41911" lon="-0.4321">
        <ele>65.25683</ele>
        <time>2023-05-09T12:09:36.449Z</time>
      </trkpt>
      <trkpt lat="47.41909" lon="-0.43196">
        <ele>65.085494</ele>
        <time>2023-05-09T12:09:39.445Z</time>
      </trkpt>
      <trkpt lat="47.41907" lon="-0.43183">
        <ele>64.918476</ele>
        <time>2023-05-09T12:09:42.448Z</time>
      </trkpt>
      <trkpt lat="47.41905" lon="-0.4317">
        <ele>64.751594</ele>
        <time>2023-05-09T12:09:45.447Z</time>
      </trkpt>
      <trkpt lat="47.41903" lon="-0.43156">
        <ele>64.577831</ele>
        <time>2023-05-09T12:09:48.450Z</time>
      </trkpt>
      <trkpt lat="47.4191" lon="-0.43143">
        <ele>64.427552</ele>
        <time>2023-05-09T12:09:52.449Z</time>
      </trkpt>
      <trkpt lat="47.41924" lon="-0.43139">
        <ele>64.273754</ele>
        <time>2023-05-09T12:09:55.441Z</time>
      </trkpt>
      <trkpt lat="47.41933" lon="-0.43137">
        <ele>64.172059</ele>
        <time>2023-05-09T12:09:57.443Z</time>
      </trkpt>
      <trkpt lat="47.41943" lon="-0.43134">
        <ele>64.055169</ele>
        <time>2023-05-09T12:09:59.452Z</time>
      </trkpt>
      <trkpt lat="47.41953" lon="-0.43133">
        <ele>63.938932</ele>
        <time>2023-05-09T12:10:01.450Z</time>
      </trkpt>
      <trkpt lat="47.41964" lon="-0.43133">
        <ele>63.820725</ele>
        <time>2023-05-09T12:10:03.450Z</time>
      </trkpt>
      <trkpt lat="47.41974" lon="-0.43135">
        <ele>63.705916</ele>
        <time>2023-05-09T12:10:05.442Z</time>
      </trkpt>
      <trkpt lat="47.41984" lon="-0.43136">
        <ele>63.59868</ele>
        <time>2023-05-09T12:10:07.447Z</time>
      </trkpt>
      <trkpt lat="47.41993" lon="-0.43137">
        <ele>63.492387</ele>
        <time>2023-05-09T12:10:09.450Z</time>
      </trkpt>
      <trkpt lat="47.42005" lon="-0.43139">
        <ele>63.356737</ele>
        <time>2023-05-09T12:10:12.446Z</time>
      </trkpt>
      <trkpt lat="47.42015" lon="-0.43138">
        <ele>63.246059</ele>
        <time>2023-05-09T12:10:15.438Z</time>
      </trkpt>
      <trkpt lat="47.42021" lon="-0.43125">
        <ele>63.129231</ele>
        <time>2023-05-09T12:10:19.446Z</time>
      </trkpt>
      <trkpt lat="47.42021" lon="-0.43111">
        <ele>63.022098</ele>
        <time>2023-05-09T12:10:23.448Z</time>
      </trkpt>
      <trkpt lat="47.42022" lon="-0.43097">
        <ele>62.917897</ele>
        <time>2023-05-09T12:10:27.449Z</time>
      </trkpt>
      <trkpt lat="47.42024" lon="-0.43083">
        <ele>62.812287</ele>
        <time>2023-05-09T12:10:31.451Z</time>
      </trkpt>
      <trkpt lat="47.42026" lon="-0.43066">
        <ele>62.679818</ele>
        <time>2023-05-09T12:10:35.458Z</time>
      </trkpt>
      <trkpt lat="47.42028" lon="-0.43052">
        <ele>62.569745</ele>
        <time>2023-05-09T12:10:38.444Z</time>
      </trkpt>
      <trkpt lat="47.42029" lon="-0.43037">
        <ele>62.45327</ele>
        <time>2023-05-09T12:10:41.451Z</time>
      </trkpt>
      <trkpt lat="47.4203" lon="-0.43024">
        <ele>62.342822</ele>
        <time>2023-05-09T12:10:44.435Z</time>
      </trkpt>
      <trkpt lat="47.42031" lon="-0.43006">
        <ele>62.198417</ele>
        <time>2023-05-09T12:10:48.457Z</time>
      </trkpt>
      <trkpt lat="47.42032" lon="-0.42993">
        <ele>62.085086</ele>
        <time>2023-05-09T12:10:51.448Z</time>
      </trkpt>
      <trkpt lat="47.42033" lon="-0.42977">
        <ele>61.950951</ele>
        <time>2023-05-09T12:10:55.478Z</time>
      </trkpt>
      <trkpt lat="47.42034" lon="-0.42959">
        <ele>61.806841</ele>
        <time>2023-05-09T12:10:59.443Z</time>
      </trkpt>
      <trkpt lat="47.42035" lon="-0.42945">
        <ele>61.688593</ele>
        <time>2023-05-09T12:11:02.448Z</time>
      </trkpt>
      <trkpt lat="47.42035" lon="-0.4293">
        <ele>61.568752</ele>
        <time>2023-05-09T12:11:05.447Z</time>
      </trkpt>
      <trkpt lat="47.42035" lon="-0.42916">
        <ele>61.448931</ele>
        <time>2023-05-09T12:11:08.441Z</time>
      </trkpt>
      <trkpt lat="47.42036" lon="-0.42902">
        <ele>61.332726</ele>
        <time>2023-05-09T12:11:11.449Z</time>
      </trkpt>
      <trkpt lat="47.42035" lon="-0.42887">
        <ele>61.210133</ele>
        <time>2023-05-09T12:11:14.449Z</time>
      </trkpt>
      <trkpt lat="47.42036" lon="-0.42872">
        <ele>61.086408</ele>
        <time>2023-05-09T12:11:17.453Z</time>
      </trkpt>
      <trkpt lat="47.42035" lon="-0.42858">
        <ele>60.965267</ele>
        <time>2023-05-09T12:11:20.447Z</time>
      </trkpt>
      <trkpt lat="47.42035" lon="-0.42842">
        <ele>60.837165</ele>
        <time>2023-05-09T12:11:23.451Z</time>
      </trkpt>
      <trkpt lat="47.42035" lon="-0.42827">
        <ele>60.712296</ele>
        <time>2023-05-09T12:11:26.447Z</time>
      </trkpt>
      <trkpt lat="47.42042" lon="-0.42814">
        <ele>60.576167</ele>
        <time>2023-05-09T12:11:31.443Z</time>
      </trkpt>
      <trkpt lat="47.42054" lon="-0.42814">
        <ele>60.425933</ele>
        <time>2023-05-09T12:11:35.449Z</time>
      </trkpt>
      <trkpt lat="47.42065" lon="-0.42818">
        <ele>60.318149</ele>
        <time>2023-05-09T12:11:38.447Z</time>
      </trkpt>
      <trkpt lat="47.42075" lon="-0.42821">
        <ele>60.368327</ele>
        <time>2023-05-09T12:11:41.451Z</time>
      </trkpt>
      <trkpt lat="47.42084" lon="-0.42823">
        <ele>60.414385</ele>
        <time>2023-05-09T12:11:44.447Z</time>
      </trkpt>
      <trkpt lat="47.42094" lon="-0.4282">
        <ele>60.465594</ele>
        <time>2023-05-09T12:11:48.451Z</time>
      </trkpt>
      <trkpt lat="47.42098" lon="-0.42806">
        <ele>60.517335</ele>
        <time>2023-05-09T12:11:52.451Z</time>
      </trkpt>
      <trkpt lat="47.421" lon="-0.4279">
        <ele>60.569319</ele>
        <time>2023-05-09T12:11:55.448Z</time>
      </trkpt>
      <trkpt lat="47.42101" lon="-0.42774">
        <ele>60.624191</ele>
        <time>2023-05-09T12:11:58.443Z</time>
      </trkpt>
      <trkpt lat="47.42103" lon="-0.42757">
        <ele>60.680858</ele>
        <time>2023-05-09T12:12:01.447Z</time>
      </trkpt>
      <trkpt lat="47.42106" lon="-0.42741">
        <ele>60.736432</ele>
        <time>2023-05-09T12:12:04.448Z</time>
      </trkpt>
      <trkpt lat="47.42108" lon="-0.42724">
        <ele>60.793428</ele>
        <time>2023-05-09T12:12:07.447Z</time>
      </trkpt>
      <trkpt lat="47.42112" lon="-0.42708">
        <ele>60.851672</ele>
        <time>2023-05-09T12:12:10.449Z</time>
      </trkpt>
      <trkpt lat="47.42115" lon="-0.42693">
        <ele>60.904533</ele>
        <time>2023-05-09T12:12:13.438Z</time>
      </trkpt>
      <trkpt lat="47.42118" lon="-0.42679">
        <ele>60.952578</ele>
        <time>2023-05-09T12:12:16.444Z</time>
      </trkpt>
      <trkpt lat="47.42121" lon="-0.42662">
        <ele>61.009132</ele>
        <time>2023-05-09T12:12:20.447Z</time>
      </trkpt>
      <trkpt lat="47.42124" lon="-0.42648">
        <ele>61.059964</ele>
        <time>2023-05-09T12:12:23.457Z</time>
      </trkpt>
      <trkpt lat="47.42128" lon="-0.42632">
        <ele>61.116651</ele>
        <time>2023-05-09T12:12:26.445Z</time>
      </trkpt>
      <trkpt lat="47.42132" lon="-0.42615">
        <ele>61.17693</ele>
        <time>2023-05-09T12:12:29.444Z</time>
      </trkpt>
      <trkpt lat="47.42135" lon="-0.42598">
        <ele>61.265389</ele>
        <time>2023-05-09T12:12:32.448Z</time>
      </trkpt>
      <trkpt lat="47.42137" lon="-0.42581">
        <ele>61.366144</ele>
        <time>2023-05-09T12:12:35.447Z</time>
      </trkpt>
      <trkpt lat="47.4214" lon="-0.42567">
        <ele>61.453205</ele>
        <time>2023-05-09T12:12:38.450Z</time>
      </trkpt>
      <trkpt lat="47.42142" lon="-0.42553">
        <ele>61.53526</ele>
        <time>2023-05-09T12:12:41.448Z</time>
      </trkpt>
      <trkpt lat="47.42144" lon="-0.42538">
        <ele>61.625314</ele>
        <time>2023-05-09T12:12:44.447Z</time>
      </trkpt>
      <trkpt lat="47.42146" lon="-0.42522">
        <ele>61.722714</ele>
        <time>2023-05-09T12:12:47.447Z</time>
      </trkpt>
      <trkpt lat="47.42148" lon="-0.42506">
        <ele>61.815631</ele>
        <time>2023-05-09T12:12:50.443Z</time>
      </trkpt>
      <trkpt lat="47.42151" lon="-0.42492">
        <ele>61.901092</ele>
        <time>2023-05-09T12:12:53.447Z</time>
      </trkpt>
      <trkpt lat="47.42153" lon="-0.42478">
        <ele>61.987316</ele>
        <time>2023-05-09T12:12:56.449Z</time>
      </trkpt>
      <trkpt lat="47.42154" lon="-0.42463">
        <ele>62.076124</ele>
        <time>2023-05-09T12:12:59.450Z</time>
      </trkpt>
      <trkpt lat="47.42155" lon="-0.42446">
        <ele>62.17634</ele>
        <time>2023-05-09T12:13:02.448Z</time>
      </trkpt>
      <trkpt lat="47.4216" lon="-0.42429">
        <ele>62.282825</ele>
        <time>2023-05-09T12:13:05.449Z</time>
      </trkpt>
      <trkpt lat="47.42168" lon="-0.42414">
        <ele>62.391941</ele>
        <time>2023-05-09T12:13:08.452Z</time>
      </trkpt>
      <trkpt lat="47.42177" lon="-0.42402">
        <ele>62.498452</ele>
        <time>2023-05-09T12:13:11.448Z</time>
      </trkpt>
      <trkpt lat="47.42186" lon="-0.42394">
        <ele>62.592953</ele>
        <time>2023-05-09T12:13:14.446Z</time>
      </trkpt>
      <trkpt lat="47.42196" lon="-0.42387">
        <ele>62.690047</ele>
        <time>2023-05-09T12:13:17.446Z</time>
      </trkpt>
      <trkpt lat="47.42207" lon="-0.42382">
        <ele>62.783331</ele>
        <time>2023-05-09T12:13:20.443Z</time>
      </trkpt>
      <trkpt lat="47.42219" lon="-0.42376">
        <ele>62.867539</ele>
        <time>2023-05-09T12:13:23.445Z</time>
      </trkpt>
      <trkpt lat="47.4223" lon="-0.42371">
        <ele>62.950291</ele>
        <time>2023-05-09T12:13:26.444Z</time>
      </trkpt>
      <trkpt lat="47.42241" lon="-0.42366">
        <ele>63.028909</ele>
        <time>2023-05-09T12:13:29.451Z</time>
      </trkpt>
      <trkpt lat="47.42252" lon="-0.42362">
        <ele>63.105185</ele>
        <time>2023-05-09T12:13:32.449Z</time>
      </trkpt>
      <trkpt lat="47.42263" lon="-0.42355">
        <ele>63.185613</ele>
        <time>2023-05-09T12:13:35.452Z</time>
      </trkpt>
      <trkpt lat="47.42274" lon="-0.42349">
        <ele>63.268989</ele>
        <time>2023-05-09T12:13:38.451Z</time>
      </trkpt>
      <trkpt lat="47.42283" lon="-0.42341">
        <ele>63.341347</ele>
        <time>2023-05-09T12:13:41.450Z</time>
      </trkpt>
      <trkpt lat="47.42291" lon="-0.42332">
        <ele>63.411274</ele>
        <time>2023-05-09T12:13:44.449Z</time>
      </trkpt>
      <trkpt lat="47.42299" lon="-0.42324">
        <ele>63.476208</ele>
        <time>2023-05-09T12:13:47.447Z</time>
      </trkpt>
      <trkpt lat="47.42305" lon="-0.42312">
        <ele>63.547514</ele>
        <time>2023-05-09T12:13:50.444Z</time>
      </trkpt>
      <trkpt lat="47.42313" lon="-0.423">
        <ele>63.623576</ele>
        <time>2023-05-09T12:13:53.447Z</time>
      </trkpt>
      <trkpt lat="47.42323" lon="-0.42288">
        <ele>63.710638</ele>
        <time>2023-05-09T12:13:56.446Z</time>
      </trkpt>
      <trkpt lat="47.42333" lon="-0.42277">
        <ele>63.798902</ele>
        <time>2023-05-09T12:13:59.446Z</time>
      </trkpt>
      <trkpt lat="47.42343" lon="-0.42266">
        <ele>63.885757</ele>
        <time>2023-05-09T12:14:02.445Z</time>
      </trkpt>
      <trkpt lat="47.42353" lon="-0.42256">
        <ele>63.968502</ele>
        <time>2023-05-09T12:14:05.452Z</time>
      </trkpt>
      <trkpt lat="47.42362" lon="-0.42246">
        <ele>64.003144</ele>
        <time>2023-05-09T12:14:08.448Z</time>
      </trkpt>
      <trkpt lat="47.42371" lon="-0.42238">
        <ele>64.005926</ele>
        <time>2023-05-09T12:14:11.448Z</time>
      </trkpt>
      <trkpt lat="47.4238" lon="-0.42227">
        <ele>64.008974</ele>
        <time>2023-05-09T12:14:14.453Z</time>
      </trkpt>
      <trkpt lat="47.4239" lon="-0.42217">
        <ele>64.011991</ele>
        <time>2023-05-09T12:14:17.449Z</time>
      </trkpt>
      <trkpt lat="47.42399" lon="-0.42207">
        <ele>64.01506</ele>
        <time>2023-05-09T12:14:20.446Z</time>
      </trkpt>
      <trkpt lat="47.42408" lon="-0.42198">
        <ele>64.017846</ele>
        <time>2023-05-09T12:14:23.449Z</time>
      </trkpt>
      <trkpt lat="47.42416" lon="-0.42189">
        <ele>64.020378</ele>
        <time>2023-05-09T12:14:26.447Z</time>
      </trkpt>
      <trkpt lat="47.42424" lon="-0.4218">
        <ele>64.023133</ele>
        <time>2023-05-09T12:14:29.443Z</time>
      </trkpt>
      <trkpt lat="47.42433" lon="-0.4217">
        <ele>64.026012</ele>
        <time>2023-05-09T12:14:32.454Z</time>
      </trkpt>
      <trkpt lat="47.42442" lon="-0.42161">
        <ele>64.028935</ele>
        <time>2023-05-09T12:14:35.439Z</time>
      </trkpt>
      <trkpt lat="47.42451" lon="-0.42152">
        <ele>64.031816</ele>
        <time>2023-05-09T12:14:38.451Z</time>
      </trkpt>
      <trkpt lat="47.42461" lon="-0.42142">
        <ele>64.034854</ele>
        <time>2023-05-09T12:14:41.448Z</time>
      </trkpt>
      <trkpt lat="47.42471" lon="-0.42133">
        <ele>64.037994</ele>
        <time>2023-05-09T12:14:44.448Z</time>
      </trkpt>
      <trkpt lat="47.42482" lon="-0.42125">
        <ele>64.041199</ele>
        <time>2023-05-09T12:14:47.448Z</time>
      </trkpt>
      <trkpt lat="47.42493" lon="-0.42117">
        <ele>64.044474</ele>
        <time>2023-05-09T12:14:50.450Z</time>
      </trkpt>
      <trkpt lat="47.42504" lon="-0.42109">
        <ele>64.047656</ele>
        <time>2023-05-09T12:14:53.447Z</time>
      </trkpt>
      <trkpt lat="47.42515" lon="-0.42103">
        <ele>63.977706</ele>
        <time>2023-05-09T12:14:56.449Z</time>
      </trkpt>
      <trkpt lat="47.42524" lon="-0.42097">
        <ele>63.889135</ele>
        <time>2023-05-09T12:14:59.449Z</time>
      </trkpt>
      <trkpt lat="47.42535" lon="-0.42091">
        <ele>63.793788</ele>
        <time>2023-05-09T12:15:02.438Z</time>
      </trkpt>
      <trkpt lat="47.42546" lon="-0.42085">
        <ele>63.692732</ele>
        <time>2023-05-09T12:15:05.447Z</time>
      </trkpt>
      <trkpt lat="47.42556" lon="-0.42078">
        <ele>63.594444</ele>
        <time>2023-05-09T12:15:08.448Z</time>
      </trkpt>
      <trkpt lat="47.42566" lon="-0.42072">
        <ele>63.501582</ele>
        <time>2023-05-09T12:15:11.447Z</time>
      </trkpt>
      <trkpt lat="47.42576" lon="-0.42067">
        <ele>63.415222</ele>
        <time>2023-05-09T12:15:14.447Z</time>
      </trkpt>
      <trkpt lat="47.42585" lon="-0.42061">
        <ele>63.324607</ele>
        <time>2023-05-09T12:15:17.450Z</time>
      </trkpt>
      <trkpt lat="47.42596" lon="-0.42056">
        <ele>63.228174</ele>
        <time>2023-05-09T12:15:20.445Z</time>
      </trkpt>
      <trkpt lat="47.42607" lon="-0.42051">
        <ele>63.128898</ele>
        <time>2023-05-09T12:15:23.446Z</time>
      </trkpt>
      <trkpt lat="47.42619" lon="-0.42047">
        <ele>63.024978</ele>
        <time>2023-05-09T12:15:26.444Z</time>
      </trkpt>
      <trkpt lat="47.42629" lon="-0.42042">
        <ele>62.930971</ele>
        <time>2023-05-09T12:15:29.448Z</time>
      </trkpt>
      <trkpt lat="47.42639" lon="-0.4204">
        <ele>62.844186</ele>
        <time>2023-05-09T12:15:32.449Z</time>
      </trkpt>
      <trkpt lat="47.42651" lon="-0.42036">
        <ele>62.743034</ele>
        <time>2023-05-09T12:15:35.446Z</time>
      </trkpt>
      <trkpt lat="47.42662" lon="-0.42032">
        <ele>62.64536</ele>
        <time>2023-05-09T12:15:38.454Z</time>
      </trkpt>
      <trkpt lat="47.42674" lon="-0.42029">
        <ele>62.544067</ele>
        <time>2023-05-09T12:15:41.442Z</time>
      </trkpt>
      <trkpt lat="47.42685" lon="-0.42025">
        <ele>62.54641</ele>
        <time>2023-05-09T12:15:44.450Z</time>
      </trkpt>
      <trkpt lat="47.42696" lon="-0.42022">
        <ele>62.607696</ele>
        <time>2023-05-09T12:15:47.456Z</time>
      </trkpt>
      <trkpt lat="47.42705" lon="-0.42019">
        <ele>62.663559</ele>
        <time>2023-05-09T12:15:50.449Z</time>
      </trkpt>
      <trkpt lat="47.42714" lon="-0.42016">
        <ele>62.715496</ele>
        <time>2023-05-09T12:15:53.449Z</time>
      </trkpt>
      <trkpt lat="47.42724" lon="-0.42015">
        <ele>62.770248</ele>
        <time>2023-05-09T12:15:57.446Z</time>
      </trkpt>
      <trkpt lat="47.42734" lon="-0.42012">
        <ele>62.829796</ele>
        <time>2023-05-09T12:16:01.450Z</time>
      </trkpt>
      <trkpt lat="47.42743" lon="-0.42006">
        <ele>62.883995</ele>
        <time>2023-05-09T12:16:05.442Z</time>
      </trkpt>
      <trkpt lat="47.42747" lon="-0.41992">
        <ele>62.945351</ele>
        <time>2023-05-09T12:16:09.452Z</time>
      </trkpt>
      <trkpt lat="47.42749" lon="-0.41975">
        <ele>63.01094</ele>
        <time>2023-05-09T12:16:13.447Z</time>
      </trkpt>
      <trkpt lat="47.4275" lon="-0.41961">
        <ele>63.066357</ele>
        <time>2023-05-09T12:16:16.448Z</time>
      </trkpt>
      <trkpt lat="47.42752" lon="-0.41946">
        <ele>63.124232</ele>
        <time>2023-05-09T12:16:19.450Z</time>
      </trkpt>
      <trkpt lat="47.42754" lon="-0.41932">
        <ele>63.179312</ele>
        <time>2023-05-09T12:16:22.449Z</time>
      </trkpt>
      <trkpt lat="47.42756" lon="-0.41916">
        <ele>63.243213</ele>
        <time>2023-05-09T12:16:26.448Z</time>
      </trkpt>
      <trkpt lat="47.42755" lon="-0.419">
        <ele>63.30715</ele>
        <time>2023-05-09T12:16:30.450Z</time>
      </trkpt>
      <trkpt lat="47.42757" lon="-0.41886">
        <ele>63.360351</ele>
        <time>2023-05-09T12:16:33.444Z</time>
      </trkpt>
      <trkpt lat="47.42758" lon="-0.41871">
        <ele>63.418226</ele>
        <time>2023-05-09T12:16:36.452Z</time>
      </trkpt>
      <trkpt lat="47.42759" lon="-0.41856">
        <ele>63.478702</ele>
        <time>2023-05-09T12:16:39.449Z</time>
      </trkpt>
      <trkpt lat="47.42761" lon="-0.4184">
        <ele>63.53137</ele>
        <time>2023-05-09T12:16:42.451Z</time>
      </trkpt>
      <trkpt lat="47.42763" lon="-0.41825">
        <ele>63.521756</ele>
        <time>2023-05-09T12:16:45.446Z</time>
      </trkpt>
      <trkpt lat="47.42764" lon="-0.41812">
        <ele>63.513193</ele>
        <time>2023-05-09T12:16:48.448Z</time>
      </trkpt>
      <trkpt lat="47.42766" lon="-0.41799">
        <ele>63.50433</ele>
        <time>2023-05-09T12:16:51.446Z</time>
      </trkpt>
      <trkpt lat="47.42767" lon="-0.41785">
        <ele>63.495408</ele>
        <time>2023-05-09T12:16:54.447Z</time>
      </trkpt>
      <trkpt lat="47.42768" lon="-0.41771">
        <ele>63.48659</ele>
        <time>2023-05-09T12:16:57.449Z</time>
      </trkpt>
      <trkpt lat="47.42771" lon="-0.41757">
        <ele>63.477076</ele>
        <time>2023-05-09T12:17:00.450Z</time>
      </trkpt>
      <trkpt lat="47.42772" lon="-0.41741">
        <ele>63.466693</ele>
        <time>2023-05-09T12:17:03.451Z</time>
      </trkpt>
      <trkpt lat="47.42772" lon="-0.41726">
        <ele>63.456653</ele>
        <time>2023-05-09T12:17:06.453Z</time>
      </trkpt>
      <trkpt lat="47.42774" lon="-0.41709">
        <ele>63.445813</ele>
        <time>2023-05-09T12:17:09.451Z</time>
      </trkpt>
      <trkpt lat="47.42776" lon="-0.41692">
        <ele>63.434749</ele>
        <time>2023-05-09T12:17:12.448Z</time>
      </trkpt>
      <trkpt lat="47.42778" lon="-0.41675">
        <ele>63.423224</ele>
        <time>2023-05-09T12:17:15.452Z</time>
      </trkpt>
      <trkpt lat="47.42779" lon="-0.41656">
        <ele>63.4113</ele>
        <time>2023-05-09T12:17:18.448Z</time>
      </trkpt>
      <trkpt lat="47.4278" lon="-0.41638">
        <ele>63.399354</ele>
        <time>2023-05-09T12:17:21.450Z</time>
      </trkpt>
      <trkpt lat="47.42782" lon="-0.41619">
        <ele>63.386691</ele>
        <time>2023-05-09T12:17:24.449Z</time>
      </trkpt>
      <trkpt lat="47.42783" lon="-0.41605">
        <ele>63.37778</ele>
        <time>2023-05-09T12:17:26.449Z</time>
      </trkpt>
      <trkpt lat="47.42785" lon="-0.41592">
        <ele>63.369011</ele>
        <time>2023-05-09T12:17:28.450Z</time>
      </trkpt>
      <trkpt lat="47.42786" lon="-0.41573">
        <ele>63.36531</ele>
        <time>2023-05-09T12:17:31.444Z</time>
      </trkpt>
      <trkpt lat="47.42786" lon="-0.41553">
        <ele>63.379523</ele>
        <time>2023-05-09T12:17:34.443Z</time>
      </trkpt>
      <trkpt lat="47.42787" lon="-0.4154">
        <ele>63.389419</ele>
        <time>2023-05-09T12:17:36.451Z</time>
      </trkpt>
      <trkpt lat="47.42787" lon="-0.41526">
        <ele>63.399177</ele>
        <time>2023-05-09T12:17:38.449Z</time>
      </trkpt>
      <trkpt lat="47.42787" lon="-0.41513">
        <ele>63.409004</ele>
        <time>2023-05-09T12:17:40.458Z</time>
      </trkpt>
      <trkpt lat="47.42788" lon="-0.41494">
        <ele>63.422249</ele>
        <time>2023-05-09T12:17:43.449Z</time>
      </trkpt>
      <trkpt lat="47.42788" lon="-0.41475">
        <ele>63.436145</ele>
        <time>2023-05-09T12:17:46.450Z</time>
      </trkpt>
      <trkpt lat="47.42788" lon="-0.41456">
        <ele>63.450042</ele>
        <time>2023-05-09T12:17:49.446Z</time>
      </trkpt>
      <trkpt lat="47.42788" lon="-0.41436">
        <ele>63.464665</ele>
        <time>2023-05-09T12:17:52.450Z</time>
      </trkpt>
      <trkpt lat="47.42788" lon="-0.41423">
        <ele>63.474435</ele>
        <time>2023-05-09T12:17:54.448Z</time>
      </trkpt>
      <trkpt lat="47.42788" lon="-0.41409">
        <ele>63.484193</ele>
        <time>2023-05-09T12:17:56.459Z</time>
      </trkpt>
      <trkpt lat="47.42788" lon="-0.41395">
        <ele>63.494745</ele>
        <time>2023-05-09T12:17:58.451Z</time>
      </trkpt>
      <trkpt lat="47.42789" lon="-0.41375">
        <ele>63.509393</ele>
        <time>2023-05-09T12:18:01.438Z</time>
      </trkpt>
      <trkpt lat="47.42789" lon="-0.41361">
        <ele>63.519217</ele>
        <time>2023-05-09T12:18:03.450Z</time>
      </trkpt>
      <trkpt lat="47.4279" lon="-0.41341">
        <ele>63.533919</ele>
        <time>2023-05-09T12:18:06.458Z</time>
      </trkpt>
      <trkpt lat="47.4279" lon="-0.41327">
        <ele>63.544186</ele>
        <time>2023-05-09T12:18:08.450Z</time>
      </trkpt>
      <trkpt lat="47.4279" lon="-0.41308">
        <ele>63.608083</ele>
        <time>2023-05-09T12:18:11.443Z</time>
      </trkpt>
      <trkpt lat="47.4279" lon="-0.41288">
        <ele>63.795007</ele>
        <time>2023-05-09T12:18:14.448Z</time>
      </trkpt>
      <trkpt lat="47.42791" lon="-0.41275">
        <ele>63.925231</ele>
        <time>2023-05-09T12:18:16.449Z</time>
      </trkpt>
      <trkpt lat="47.42791" lon="-0.41261">
        <ele>64.05986</ele>
        <time>2023-05-09T12:18:18.450Z</time>
      </trkpt>
      <trkpt lat="47.42792" lon="-0.41242">
        <ele>64.245816</ele>
        <time>2023-05-09T12:18:21.445Z</time>
      </trkpt>
      <trkpt lat="47.42792" lon="-0.41223">
        <ele>64.427953</ele>
        <time>2023-05-09T12:18:24.445Z</time>
      </trkpt>
      <trkpt lat="47.42792" lon="-0.4121">
        <ele>64.556737</ele>
        <time>2023-05-09T12:18:26.447Z</time>
      </trkpt>
      <trkpt lat="47.42792" lon="-0.41196">
        <ele>64.689361</ele>
        <time>2023-05-09T12:18:28.449Z</time>
      </trkpt>
      <trkpt lat="47.42793" lon="-0.41182">
        <ele>64.829026</ele>
        <time>2023-05-09T12:18:30.449Z</time>
      </trkpt>
      <trkpt lat="47.42793" lon="-0.41168">
        <ele>64.959785</ele>
        <time>2023-05-09T12:18:32.453Z</time>
      </trkpt>
      <trkpt lat="47.42793" lon="-0.41148">
        <ele>65.153482</ele>
        <time>2023-05-09T12:18:35.443Z</time>
      </trkpt>
      <trkpt lat="47.42794" lon="-0.41135">
        <ele>65.283274</ele>
        <time>2023-05-09T12:18:37.457Z</time>
      </trkpt>
      <trkpt lat="47.42793" lon="-0.41115">
        <ele>65.473149</ele>
        <time>2023-05-09T12:18:40.452Z</time>
      </trkpt>
      <trkpt lat="47.42793" lon="-0.41102">
        <ele>65.602901</ele>
        <time>2023-05-09T12:18:42.447Z</time>
      </trkpt>
      <trkpt lat="47.42794" lon="-0.41088">
        <ele>65.740432</ele>
        <time>2023-05-09T12:18:44.449Z</time>
      </trkpt>
      <trkpt lat="47.42794" lon="-0.41074">
        <ele>65.872159</ele>
        <time>2023-05-09T12:18:46.448Z</time>
      </trkpt>
      <trkpt lat="47.42794" lon="-0.41055">
        <ele>66.058115</ele>
        <time>2023-05-09T12:18:49.432Z</time>
      </trkpt>
      <trkpt lat="47.42794" lon="-0.41041">
        <ele>66.134998</ele>
        <time>2023-05-09T12:18:51.442Z</time>
      </trkpt>
      <trkpt lat="47.42795" lon="-0.41028">
        <ele>66.149692</ele>
        <time>2023-05-09T12:18:53.442Z</time>
      </trkpt>
      <trkpt lat="47.42795" lon="-0.41015">
        <ele>66.164381</ele>
        <time>2023-05-09T12:18:55.441Z</time>
      </trkpt>
      <trkpt lat="47.42795" lon="-0.40994">
        <ele>66.186796</ele>
        <time>2023-05-09T12:18:58.445Z</time>
      </trkpt>
      <trkpt lat="47.42795" lon="-0.40974">
        <ele>66.208775</ele>
        <time>2023-05-09T12:19:01.450Z</time>
      </trkpt>
      <trkpt lat="47.42796" lon="-0.4096">
        <ele>66.224154</ele>
        <time>2023-05-09T12:19:03.449Z</time>
      </trkpt>
      <trkpt lat="47.42795" lon="-0.40946">
        <ele>66.239633</ele>
        <time>2023-05-09T12:19:05.451Z</time>
      </trkpt>
      <trkpt lat="47.42795" lon="-0.40933">
        <ele>66.255024</ele>
        <time>2023-05-09T12:19:07.448Z</time>
      </trkpt>
      <trkpt lat="47.42794" lon="-0.40918">
        <ele>66.271395</ele>
        <time>2023-05-09T12:19:09.447Z</time>
      </trkpt>
      <trkpt lat="47.42794" lon="-0.40904">
        <ele>66.286746</ele>
        <time>2023-05-09T12:19:11.450Z</time>
      </trkpt>
      <trkpt lat="47.42794" lon="-0.4089">
        <ele>66.301763</ele>
        <time>2023-05-09T12:19:13.449Z</time>
      </trkpt>
      <trkpt lat="47.42794" lon="-0.40876">
        <ele>66.317443</ele>
        <time>2023-05-09T12:19:15.448Z</time>
      </trkpt>
      <trkpt lat="47.42794" lon="-0.40862">
        <ele>66.333454</ele>
        <time>2023-05-09T12:19:17.446Z</time>
      </trkpt>
      <trkpt lat="47.42794" lon="-0.40847">
        <ele>66.349576</ele>
        <time>2023-05-09T12:19:19.448Z</time>
      </trkpt>
      <trkpt lat="47.42795" lon="-0.40832">
        <ele>66.365814</ele>
        <time>2023-05-09T12:19:21.446Z</time>
      </trkpt>
      <trkpt lat="47.42795" lon="-0.40817">
        <ele>66.382274</ele>
        <time>2023-05-09T12:19:23.447Z</time>
      </trkpt>
      <trkpt lat="47.42796" lon="-0.40803">
        <ele>66.398037</ele>
        <time>2023-05-09T12:19:25.446Z</time>
      </trkpt>
      <trkpt lat="47.42797" lon="-0.40789">
        <ele>66.413664</ele>
        <time>2023-05-09T12:19:27.451Z</time>
      </trkpt>
      <trkpt lat="47.42797" lon="-0.40775">
        <ele>66.399495</ele>
        <time>2023-05-09T12:19:29.449Z</time>
      </trkpt>
      <trkpt lat="47.42796" lon="-0.40761">
        <ele>66.356084</ele>
        <time>2023-05-09T12:19:31.449Z</time>
      </trkpt>
      <trkpt lat="47.42793" lon="-0.40742">
        <ele>66.295408</ele>
        <time>2023-05-09T12:19:34.457Z</time>
      </trkpt>
      <trkpt lat="47.42783" lon="-0.40731">
        <ele>66.236222</ele>
        <time>2023-05-09T12:19:37.450Z</time>
      </trkpt>
      <trkpt lat="47.42771" lon="-0.40728">
        <ele>66.179822</ele>
        <time>2023-05-09T12:19:40.444Z</time>
      </trkpt>
      <trkpt lat="47.4276" lon="-0.40724">
        <ele>66.124332</ele>
        <time>2023-05-09T12:19:43.447Z</time>
      </trkpt>
      <trkpt lat="47.42748" lon="-0.4072">
        <ele>66.067282</ele>
        <time>2023-05-09T12:19:46.450Z</time>
      </trkpt>
      <trkpt lat="47.42736" lon="-0.40716">
        <ele>66.010753</ele>
        <time>2023-05-09T12:19:49.447Z</time>
      </trkpt>
      <trkpt lat="47.42465" lon="-0.39097">
        <ele>62.012239</ele>
        <time>2023-05-09T12:27:09.767Z</time>
      </trkpt>
      <trkpt lat="47.42456" lon="-0.39102">
        <ele>62.05184</ele>
        <time>2023-05-09T12:27:36.764Z</time>
      </trkpt>
      <trkpt lat="47.42446" lon="-0.39101">
        <ele>62.097436</ele>
        <time>2023-05-09T12:27:42.769Z</time>
      </trkpt>
      <trkpt lat="47.42435" lon="-0.39102">
        <ele>62.142108</ele>
        <time>2023-05-09T12:27:46.769Z</time>
      </trkpt>
      <trkpt lat="47.42426" lon="-0.39102">
        <ele>62.181537</ele>
        <time>2023-05-09T12:27:49.768Z</time>
      </trkpt>
      <trkpt lat="47.42416" lon="-0.39106">
        <ele>62.066728</ele>
        <time>2023-05-09T12:27:52.769Z</time>
      </trkpt>
      <trkpt lat="47.42405" lon="-0.39109">
        <ele>61.870964</ele>
        <time>2023-05-09T12:27:55.765Z</time>
      </trkpt>
      <trkpt lat="47.42393" lon="-0.3911">
        <ele>61.667053</ele>
        <time>2023-05-09T12:27:58.770Z</time>
      </trkpt>
      <trkpt lat="47.42381" lon="-0.39112">
        <ele>61.454894</ele>
        <time>2023-05-09T12:28:01.770Z</time>
      </trkpt>
      <trkpt lat="47.42369" lon="-0.39115">
        <ele>61.241859</ele>
        <time>2023-05-09T12:28:04.769Z</time>
      </trkpt>
      <trkpt lat="47.42357" lon="-0.39117">
        <ele>61.02705</ele>
        <time>2023-05-09T12:28:07.765Z</time>
      </trkpt>
      <trkpt lat="47.42345" lon="-0.39119">
        <ele>60.826305</ele>
        <time>2023-05-09T12:28:10.768Z</time>
      </trkpt>
      <trkpt lat="47.42334" lon="-0.39121">
        <ele>60.633868</ele>
        <time>2023-05-09T12:28:13.764Z</time>
      </trkpt>
      <trkpt lat="47.42322" lon="-0.39123">
        <ele>60.415057</ele>
        <time>2023-05-09T12:28:16.768Z</time>
      </trkpt>
      <trkpt lat="47.4231" lon="-0.39125">
        <ele>60.203346</ele>
        <time>2023-05-09T12:28:19.762Z</time>
      </trkpt>
      <trkpt lat="47.42298" lon="-0.39127">
        <ele>59.995384</ele>
        <time>2023-05-09T12:28:22.760Z</time>
      </trkpt>
      <trkpt lat="47.42286" lon="-0.39128">
        <ele>59.782644</ele>
        <time>2023-05-09T12:28:25.765Z</time>
      </trkpt>
      <trkpt lat="47.42274" lon="-0.3913">
        <ele>59.561266</ele>
        <time>2023-05-09T12:28:28.766Z</time>
      </trkpt>
      <trkpt lat="47.42262" lon="-0.39129">
        <ele>59.35086</ele>
        <time>2023-05-09T12:28:31.773Z</time>
      </trkpt>
      <trkpt lat="47.4225" lon="-0.39129">
        <ele>59.147594</ele>
        <time>2023-05-09T12:28:34.770Z</time>
      </trkpt>
      <trkpt lat="47.42238" lon="-0.39128">
        <ele>59.056595</ele>
        <time>2023-05-09T12:28:37.769Z</time>
      </trkpt>
      <trkpt lat="47.42227" lon="-0.39126">
        <ele>59.076266</ele>
        <time>2023-05-09T12:28:40.769Z</time>
      </trkpt>
      <trkpt lat="47.42216" lon="-0.39124">
        <ele>59.095401</ele>
        <time>2023-05-09T12:28:43.773Z</time>
      </trkpt>
      <trkpt lat="47.42205" lon="-0.39122">
        <ele>59.113432</ele>
        <time>2023-05-09T12:28:46.769Z</time>
      </trkpt>
      <trkpt lat="47.42195" lon="-0.3912">
        <ele>59.130937</ele>
        <time>2023-05-09T12:28:49.765Z</time>
      </trkpt>
      <trkpt lat="47.42184" lon="-0.39117">
        <ele>59.150342</ele>
        <time>2023-05-09T12:28:52.768Z</time>
      </trkpt>
      <trkpt lat="47.42172" lon="-0.39114">
        <ele>59.170893</ele>
        <time>2023-05-09T12:28:55.769Z</time>
      </trkpt>
      <trkpt lat="47.4216" lon="-0.39112">
        <ele>59.191842</ele>
        <time>2023-05-09T12:28:58.765Z</time>
      </trkpt>
      <trkpt lat="47.42149" lon="-0.3911">
        <ele>59.210954</ele>
        <time>2023-05-09T12:29:01.766Z</time>
      </trkpt>
      <trkpt lat="47.42138" lon="-0.39108">
        <ele>59.230716</ele>
        <time>2023-05-09T12:29:05.767Z</time>
      </trkpt>
      <trkpt lat="47.42126" lon="-0.39106">
        <ele>59.250305</ele>
        <time>2023-05-09T12:29:09.772Z</time>
      </trkpt>
      <trkpt lat="47.42118" lon="-0.39114">
        <ele>59.267025</ele>
        <time>2023-05-09T12:29:13.768Z</time>
      </trkpt>
      <trkpt lat="47.42115" lon="-0.39129">
        <ele>59.285102</ele>
        <time>2023-05-09T12:29:17.772Z</time>
      </trkpt>
      <trkpt lat="47.42113" lon="-0.39142">
        <ele>59.30067</ele>
        <time>2023-05-09T12:29:20.769Z</time>
      </trkpt>
      <trkpt lat="47.42108" lon="-0.39154">
        <ele>59.316634</ele>
        <time>2023-05-09T12:29:23.769Z</time>
      </trkpt>
      <trkpt lat="47.421" lon="-0.39159">
        <ele>59.332118</ele>
        <time>2023-05-09T12:29:26.765Z</time>
      </trkpt>
      <trkpt lat="47.4209" lon="-0.3916">
        <ele>59.348263</ele>
        <time>2023-05-09T12:29:30.801Z</time>
      </trkpt>
      <trkpt lat="47.42081" lon="-0.39157">
        <ele>59.400482</ele>
        <time>2023-05-09T12:29:35.767Z</time>
      </trkpt>
      <trkpt lat="47.42069" lon="-0.39157">
        <ele>59.486059</ele>
        <time>2023-05-09T12:29:40.766Z</time>
      </trkpt>
      <trkpt lat="47.42059" lon="-0.39157">
        <ele>59.563927</ele>
        <time>2023-05-09T12:29:44.773Z</time>
      </trkpt>
      <trkpt lat="47.42049" lon="-0.39157">
        <ele>59.644862</ele>
        <time>2023-05-09T12:29:48.757Z</time>
      </trkpt>
      <trkpt lat="47.42041" lon="-0.39151">
        <ele>59.713637</ele>
        <time>2023-05-09T12:29:55.763Z</time>
      </trkpt>
      <trkpt lat="47.4204" lon="-0.39137">
        <ele>59.78292</ele>
        <time>2023-05-09T12:30:19.765Z</time>
      </trkpt>
      <trkpt lat="47.42038" lon="-0.39124">
        <ele>59.852728</ele>
        <time>2023-05-09T12:30:46.764Z</time>
      </trkpt>
      <trkpt lat="47.42037" lon="-0.39111">
        <ele>59.921533</ele>
        <time>2023-05-09T12:31:38.772Z</time>
      </trkpt>
      <trkpt lat="47.42042" lon="-0.39097">
        <ele>59.998468</ele>
        <time>2023-05-09T12:32:17.755Z</time>
      </trkpt>
      <trkpt lat="47.42043" lon="-0.39083">
        <ele>60.074745</ele>
        <time>2023-05-09T12:32:22.765Z</time>
      </trkpt>
      <trkpt lat="47.42044" lon="-0.39069">
        <ele>60.145843</ele>
        <time>2023-05-09T12:32:27.767Z</time>
      </trkpt>
      <trkpt lat="47.42067" lon="-0.39062">
        <ele>60.322782</ele>
        <time>2023-05-09T12:33:03.771Z</time>
      </trkpt>
      <trkpt lat="47.42077" lon="-0.39062">
        <ele>60.402237</ele>
        <time>2023-05-09T12:33:05.768Z</time>
      </trkpt>
      <trkpt lat="47.42086" lon="-0.39064">
        <ele>60.472196</ele>
        <time>2023-05-09T12:33:07.766Z</time>
      </trkpt>
      <trkpt lat="47.42095" lon="-0.39065">
        <ele>60.541282</ele>
        <time>2023-05-09T12:33:09.765Z</time>
      </trkpt>
      <trkpt lat="47.42108" lon="-0.39066">
        <ele>60.638269</ele>
        <time>2023-05-09T12:33:12.768Z</time>
      </trkpt>
      <trkpt lat="47.42114" lon="-0.39079">
        <ele>60.719124</ele>
        <time>2023-05-09T12:33:15.768Z</time>
      </trkpt>
      <trkpt lat="47.42118" lon="-0.39093">
        <ele>60.829995</ele>
        <time>2023-05-09T12:33:18.756Z</time>
      </trkpt>
      <trkpt lat="47.42127" lon="-0.39102">
        <ele>60.949406</ele>
        <time>2023-05-09T12:33:22.768Z</time>
      </trkpt>
      <trkpt lat="47.42137" lon="-0.39105">
        <ele>61.064771</ele>
        <time>2023-05-09T12:33:26.769Z</time>
      </trkpt>
      <trkpt lat="47.42148" lon="-0.39107">
        <ele>61.180493</ele>
        <time>2023-05-09T12:33:30.767Z</time>
      </trkpt>
      <trkpt lat="47.42158" lon="-0.3911">
        <ele>61.2921</ele>
        <time>2023-05-09T12:33:33.767Z</time>
      </trkpt>
      <trkpt lat="47.42167" lon="-0.39111">
        <ele>61.39742</ele>
        <time>2023-05-09T12:33:36.766Z</time>
      </trkpt>
      <trkpt lat="47.42177" lon="-0.39114">
        <ele>61.504364</ele>
        <time>2023-05-09T12:33:39.756Z</time>
      </trkpt>
      <trkpt lat="47.42187" lon="-0.39115">
        <ele>61.611181</ele>
        <time>2023-05-09T12:33:42.768Z</time>
      </trkpt>
      <trkpt lat="47.42197" lon="-0.39116">
        <ele>61.723654</ele>
        <time>2023-05-09T12:33:45.770Z</time>
      </trkpt>
      <trkpt lat="47.42208" lon="-0.39118">
        <ele>61.839852</ele>
        <time>2023-05-09T12:33:48.760Z</time>
      </trkpt>
      <trkpt lat="47.42219" lon="-0.39121">
        <ele>61.964693</ele>
        <time>2023-05-09T12:33:51.768Z</time>
      </trkpt>
      <trkpt lat="47.42231" lon="-0.39124">
        <ele>62.091427</ele>
        <time>2023-05-09T12:33:54.775Z</time>
      </trkpt>
      <trkpt lat="47.42242" lon="-0.39126">
        <ele>62.216174</ele>
        <time>2023-05-09T12:33:57.768Z</time>
      </trkpt>
      <trkpt lat="47.42253" lon="-0.39127">
        <ele>62.331833</ele>
        <time>2023-05-09T12:34:00.768Z</time>
      </trkpt>
      <trkpt lat="47.42262" lon="-0.39127">
        <ele>62.431874</ele>
        <time>2023-05-09T12:34:03.768Z</time>
      </trkpt>
      <trkpt lat="47.42272" lon="-0.39127">
        <ele>62.540734</ele>
        <time>2023-05-09T12:34:06.768Z</time>
      </trkpt>
      <trkpt lat="47.42283" lon="-0.39126">
        <ele>62.65845</ele>
        <time>2023-05-09T12:34:09.766Z</time>
      </trkpt>
      <trkpt lat="47.42294" lon="-0.39123">
        <ele>62.57586</ele>
        <time>2023-05-09T12:34:12.768Z</time>
      </trkpt>
      <trkpt lat="47.42305" lon="-0.39121">
        <ele>62.43147</ele>
        <time>2023-05-09T12:34:15.772Z</time>
      </trkpt>
      <trkpt lat="47.42317" lon="-0.39119">
        <ele>62.283442</ele>
        <time>2023-05-09T12:34:18.758Z</time>
      </trkpt>
      <trkpt lat="47.42329" lon="-0.39119">
        <ele>62.132157</ele>
        <time>2023-05-09T12:34:21.758Z</time>
      </trkpt>
      <trkpt lat="47.42342" lon="-0.39118">
        <ele>61.976575</ele>
        <time>2023-05-09T12:34:24.767Z</time>
      </trkpt>
      <trkpt lat="47.42354" lon="-0.39116">
        <ele>61.828477</ele>
        <time>2023-05-09T12:34:27.769Z</time>
      </trkpt>
      <trkpt lat="47.42367" lon="-0.39113">
        <ele>61.660543</ele>
        <time>2023-05-09T12:34:30.767Z</time>
      </trkpt>
      <trkpt lat="47.4238" lon="-0.39112">
        <ele>61.493905</ele>
        <time>2023-05-09T12:34:33.765Z</time>
      </trkpt>
      <trkpt lat="47.42393" lon="-0.3911">
        <ele>61.340463</ele>
        <time>2023-05-09T12:34:36.762Z</time>
      </trkpt>
      <trkpt lat="47.42406" lon="-0.39108">
        <ele>61.176879</ele>
        <time>2023-05-09T12:34:39.770Z</time>
      </trkpt>
      <trkpt lat="47.42417" lon="-0.39106">
        <ele>61.032558</ele>
        <time>2023-05-09T12:34:42.769Z</time>
      </trkpt>
      <trkpt lat="47.4243" lon="-0.39104">
        <ele>60.87929</ele>
        <time>2023-05-09T12:34:45.773Z</time>
      </trkpt>
      <trkpt lat="47.42441" lon="-0.39103">
        <ele>60.739761</ele>
        <time>2023-05-09T12:34:48.779Z</time>
      </trkpt>
      <trkpt lat="47.42451" lon="-0.39101">
        <ele>60.614739</ele>
        <time>2023-05-09T12:34:51.768Z</time>
      </trkpt>
      <trkpt lat="47.4246" lon="-0.39101">
        <ele>60.49815</ele>
        <time>2023-05-09T12:34:54.769Z</time>
      </trkpt>
      <trkpt lat="47.42469" lon="-0.39096">
        <ele>60.44571</ele>
        <time>2023-05-09T12:34:57.767Z</time>
      </trkpt>
      <trkpt lat="47.42473" lon="-0.39083">
        <ele>60.433682</ele>
        <time>2023-05-09T12:35:00.785Z</time>
      </trkpt>
      <trkpt lat="47.42471" lon="-0.3907">
        <ele>60.421615</ele>
        <time>2023-05-09T12:35:03.773Z</time>
      </trkpt>
      <trkpt lat="47.42469" lon="-0.39056">
        <ele>60.408945</ele>
        <time>2023-05-09T12:35:06.769Z</time>
      </trkpt>
      <trkpt lat="47.42468" lon="-0.39041">
        <ele>60.395855</ele>
        <time>2023-05-09T12:35:09.772Z</time>
      </trkpt>
      <trkpt lat="47.42466" lon="-0.39027">
        <ele>60.383176</ele>
        <time>2023-05-09T12:35:12.770Z</time>
      </trkpt>
      <trkpt lat="47.42465" lon="-0.3901">
        <ele>60.368323</ele>
        <time>2023-05-09T12:35:16.763Z</time>
      </trkpt>
      <trkpt lat="47.42464" lon="-0.38995">
        <ele>60.354874</ele>
        <time>2023-05-09T12:35:20.769Z</time>
      </trkpt>
      <trkpt lat="47.42464" lon="-0.3898">
        <ele>60.341568</ele>
        <time>2023-05-09T12:35:24.764Z</time>
      </trkpt>
      <trkpt lat="47.42465" lon="-0.38966">
        <ele>60.329174</ele>
        <time>2023-05-09T12:36:04.761Z</time>
      </trkpt>
      <trkpt lat="47.42467" lon="-0.38951">
        <ele>60.315255</ele>
        <time>2023-05-09T12:36:09.766Z</time>
      </trkpt>
      <trkpt lat="47.42466" lon="-0.38935">
        <ele>60.301158</ele>
        <time>2023-05-09T12:36:13.767Z</time>
      </trkpt>
      <trkpt lat="47.42466" lon="-0.38917">
        <ele>60.285693</ele>
        <time>2023-05-09T12:36:17.773Z</time>
      </trkpt>
      <trkpt lat="47.42466" lon="-0.38903">
        <ele>60.272793</ele>
        <time>2023-05-09T12:36:20.764Z</time>
      </trkpt>
      <trkpt lat="47.42466" lon="-0.38887">
        <ele>60.259008</ele>
        <time>2023-05-09T12:36:23.771Z</time>
      </trkpt>
      <trkpt lat="47.42467" lon="-0.38871">
        <ele>60.244647</ele>
        <time>2023-05-09T12:36:26.776Z</time>
      </trkpt>
      <trkpt lat="47.42467" lon="-0.38854">
        <ele>60.230244</ele>
        <time>2023-05-09T12:36:29.762Z</time>
      </trkpt>
      <trkpt lat="47.42469" lon="-0.38839">
        <ele>60.230764</ele>
        <time>2023-05-09T12:36:32.769Z</time>
      </trkpt>
      <trkpt lat="47.42469" lon="-0.38825">
        <ele>60.319854</ele>
        <time>2023-05-09T12:36:35.768Z</time>
      </trkpt>
      <trkpt lat="47.42469" lon="-0.38807">
        <ele>60.42745</ele>
        <time>2023-05-09T12:36:39.775Z</time>
      </trkpt>
      <trkpt lat="47.42468" lon="-0.38793">
        <ele>60.515982</ele>
        <time>2023-05-09T12:36:42.772Z</time>
      </trkpt>
      <trkpt lat="47.42469" lon="-0.38777">
        <ele>60.615832</ele>
        <time>2023-05-09T12:36:45.772Z</time>
      </trkpt>
      <trkpt lat="47.4247" lon="-0.38761">
        <ele>60.713401</ele>
        <time>2023-05-09T12:36:48.766Z</time>
      </trkpt>
      <trkpt lat="47.42471" lon="-0.38745">
        <ele>60.809659</ele>
        <time>2023-05-09T12:36:51.770Z</time>
      </trkpt>
      <trkpt lat="47.42472" lon="-0.38729">
        <ele>60.908451</ele>
        <time>2023-05-09T12:36:54.767Z</time>
      </trkpt>
      <trkpt lat="47.42473" lon="-0.38713">
        <ele>61.006464</ele>
        <time>2023-05-09T12:36:57.769Z</time>
      </trkpt>
      <trkpt lat="47.42475" lon="-0.38698">
        <ele>61.102921</ele>
        <time>2023-05-09T12:37:00.763Z</time>
      </trkpt>
      <trkpt lat="47.42477" lon="-0.38683">
        <ele>61.194427</ele>
        <time>2023-05-09T12:37:03.768Z</time>
      </trkpt>
      <trkpt lat="47.42479" lon="-0.38669">
        <ele>61.28559</ele>
        <time>2023-05-09T12:37:06.765Z</time>
      </trkpt>
      <trkpt lat="47.42482" lon="-0.38654">
        <ele>61.38083</ele>
        <time>2023-05-09T12:37:09.756Z</time>
      </trkpt>
      <trkpt lat="47.42483" lon="-0.38638">
        <ele>61.476075</ele>
        <time>2023-05-09T12:37:12.767Z</time>
      </trkpt>
      <trkpt lat="47.42485" lon="-0.38623">
        <ele>61.574959</ele>
        <time>2023-05-09T12:37:15.763Z</time>
      </trkpt>
      <trkpt lat="47.42486" lon="-0.38606">
        <ele>61.6765</ele>
        <time>2023-05-09T12:37:18.765Z</time>
      </trkpt>
      <trkpt lat="47.42488" lon="-0.3859">
        <ele>61.778042</ele>
        <time>2023-05-09T12:37:21.776Z</time>
      </trkpt>
      <trkpt lat="47.42489" lon="-0.38573">
        <ele>61.856277</ele>
        <time>2023-05-09T12:37:24.767Z</time>
      </trkpt>
      <trkpt lat="47.42491" lon="-0.38559">
        <ele>61.870926</ele>
        <time>2023-05-09T12:37:27.771Z</time>
      </trkpt>
      <trkpt lat="47.42491" lon="-0.38544">
        <ele>61.884974</ele>
        <time>2023-05-09T12:37:30.772Z</time>
      </trkpt>
      <trkpt lat="47.42492" lon="-0.3853">
        <ele>61.899597</ele>
        <time>2023-05-09T12:37:33.772Z</time>
      </trkpt>
      <trkpt lat="47.42494" lon="-0.38515">
        <ele>61.915108</ele>
        <time>2023-05-09T12:37:36.775Z</time>
      </trkpt>
      <trkpt lat="47.42496" lon="-0.38498">
        <ele>61.931216</ele>
        <time>2023-05-09T12:37:39.771Z</time>
      </trkpt>
      <trkpt lat="47.42497" lon="-0.38481">
        <ele>61.948315</ele>
        <time>2023-05-09T12:37:42.770Z</time>
      </trkpt>
      <trkpt lat="47.42496" lon="-0.38463">
        <ele>61.966238</ele>
        <time>2023-05-09T12:37:45.771Z</time>
      </trkpt>
      <trkpt lat="47.42495" lon="-0.38445">
        <ele>61.984105</ele>
        <time>2023-05-09T12:37:48.769Z</time>
      </trkpt>
      <trkpt lat="47.42494" lon="-0.38428">
        <ele>62.001745</ele>
        <time>2023-05-09T12:37:51.773Z</time>
      </trkpt>
      <trkpt lat="47.42493" lon="-0.38412">
        <ele>62.017852</ele>
        <time>2023-05-09T12:37:54.774Z</time>
      </trkpt>
      <trkpt lat="47.42492" lon="-0.38397">
        <ele>62.033122</ele>
        <time>2023-05-09T12:37:57.776Z</time>
      </trkpt>
      <trkpt lat="47.42494" lon="-0.38382">
        <ele>62.048054</ele>
        <time>2023-05-09T12:38:00.772Z</time>
      </trkpt>
      <trkpt lat="47.42502" lon="-0.38373">
        <ele>62.063439</ele>
        <time>2023-05-09T12:38:03.777Z</time>
      </trkpt>
      <trkpt lat="47.42512" lon="-0.38363">
        <ele>62.080903</ele>
        <time>2023-05-09T12:38:06.775Z</time>
      </trkpt>
      <trkpt lat="47.41314" lon="-0.33345">
        <ele>63.351848</ele>
        <time>2023-05-09T12:57:21.767Z</time>
      </trkpt>
      <trkpt lat="47.41319" lon="-0.33366">
        <ele>63.374896</ele>
        <time>2023-05-09T12:57:44.764Z</time>
      </trkpt>
      <trkpt lat="47.41317" lon="-0.33351">
        <ele>63.431608</ele>
        <time>2023-05-09T12:57:57.760Z</time>
      </trkpt>
      <trkpt lat="47.41309" lon="-0.33344">
        <ele>63.535823</ele>
        <time>2023-05-09T12:58:00.763Z</time>
      </trkpt>
      <trkpt lat="47.41299" lon="-0.33344">
        <ele>63.652301</ele>
        <time>2023-05-09T12:58:04.765Z</time>
      </trkpt>
      <trkpt lat="47.41288" lon="-0.33347">
        <ele>63.768632</ele>
        <time>2023-05-09T12:58:08.768Z</time>
      </trkpt>
      <trkpt lat="47.41279" lon="-0.3335">
        <ele>63.871585</ele>
        <time>2023-05-09T12:58:11.768Z</time>
      </trkpt>
      <trkpt lat="47.41268" lon="-0.33351">
        <ele>63.999341</ele>
        <time>2023-05-09T12:58:15.761Z</time>
      </trkpt>
      <trkpt lat="47.41257" lon="-0.33352">
        <ele>64.122992</ele>
        <time>2023-05-09T12:58:19.752Z</time>
      </trkpt>
      <trkpt lat="47.41246" lon="-0.33354">
        <ele>64.249251</ele>
        <time>2023-05-09T12:58:23.754Z</time>
      </trkpt>
      <trkpt lat="47.41234" lon="-0.33355">
        <ele>64.381513</ele>
        <time>2023-05-09T12:58:27.763Z</time>
      </trkpt>
      <trkpt lat="47.41223" lon="-0.33357">
        <ele>64.508722</ele>
        <time>2023-05-09T12:58:31.770Z</time>
      </trkpt>
      <trkpt lat="47.41212" lon="-0.33359">
        <ele>64.63507</ele>
        <time>2023-05-09T12:58:35.769Z</time>
      </trkpt>
      <trkpt lat="47.412" lon="-0.3336">
        <ele>64.767488</ele>
        <time>2023-05-09T12:58:39.770Z</time>
      </trkpt>
      <trkpt lat="47.4119" lon="-0.3336">
        <ele>64.871646</ele>
        <time>2023-05-09T12:58:42.769Z</time>
      </trkpt>
      <trkpt lat="47.41179" lon="-0.3336">
        <ele>65.004999</ele>
        <time>2023-05-09T12:58:46.770Z</time>
      </trkpt>
      <trkpt lat="47.41168" lon="-0.33362">
        <ele>65.12099</ele>
        <time>2023-05-09T12:58:50.770Z</time>
      </trkpt>
      <trkpt lat="47.41159" lon="-0.33365">
        <ele>65.231377</ele>
        <time>2023-05-09T12:58:54.767Z</time>
      </trkpt>
      <trkpt lat="47.41149" lon="-0.33367">
        <ele>65.337045</ele>
        <time>2023-05-09T12:58:58.768Z</time>
      </trkpt>
      <trkpt lat="47.41138" lon="-0.33369">
        <ele>65.379512</ele>
        <time>2023-05-09T12:59:03.767Z</time>
      </trkpt>
      <trkpt lat="47.41129" lon="-0.3337">
        <ele>65.346761</ele>
        <time>2023-05-09T12:59:08.766Z</time>
      </trkpt>
      <trkpt lat="47.4112" lon="-0.33363">
        <ele>65.311995</ele>
        <time>2023-05-09T12:59:14.764Z</time>
      </trkpt>
      <trkpt lat="47.41116" lon="-0.33351">
        <ele>65.279086</ele>
        <time>2023-05-09T12:59:18.764Z</time>
      </trkpt>
      <trkpt lat="47.41113" lon="-0.33335">
        <ele>65.24015</ele>
        <time>2023-05-09T12:59:22.762Z</time>
      </trkpt>
      <trkpt lat="47.41109" lon="-0.33321">
        <ele>65.203311</ele>
        <time>2023-05-09T12:59:26.766Z</time>
      </trkpt>
      <trkpt lat="47.41104" lon="-0.33306">
        <ele>65.165069</ele>
        <time>2023-05-09T12:59:30.773Z</time>
      </trkpt>
      <trkpt lat="47.411" lon="-0.33292">
        <ele>65.128411</ele>
        <time>2023-05-09T12:59:34.766Z</time>
      </trkpt>
      <trkpt lat="47.41095" lon="-0.3328">
        <ele>65.095439</ele>
        <time>2023-05-09T13:00:12.765Z</time>
      </trkpt>
      <trkpt lat="47.41091" lon="-0.33266">
        <ele>65.058507</ele>
        <time>2023-05-09T13:00:17.764Z</time>
      </trkpt>
      <trkpt lat="47.41087" lon="-0.3325">
        <ele>65.017653</ele>
        <time>2023-05-09T13:00:21.764Z</time>
      </trkpt>
      <trkpt lat="47.41084" lon="-0.33237">
        <ele>64.986008</ele>
        <time>2023-05-09T13:00:24.765Z</time>
      </trkpt>
      <trkpt lat="47.41081" lon="-0.33223">
        <ele>64.950323</ele>
        <time>2023-05-09T13:00:27.768Z</time>
      </trkpt>
      <trkpt lat="47.41077" lon="-0.33206">
        <ele>64.90913</ele>
        <time>2023-05-09T13:00:30.769Z</time>
      </trkpt>
      <trkpt lat="47.41074" lon="-0.33189">
        <ele>64.866732</ele>
        <time>2023-05-09T13:00:33.770Z</time>
      </trkpt>
      <trkpt lat="47.41071" lon="-0.33171">
        <ele>64.823437</ele>
        <time>2023-05-09T13:00:36.767Z</time>
      </trkpt>
      <trkpt lat="47.41069" lon="-0.33153">
        <ele>64.779368</ele>
        <time>2023-05-09T13:00:39.768Z</time>
      </trkpt>
      <trkpt lat="47.41066" lon="-0.33135">
        <ele>64.767665</ele>
        <time>2023-05-09T13:00:42.768Z</time>
      </trkpt>
      <trkpt lat="47.41064" lon="-0.33117">
        <ele>64.76591</ele>
        <time>2023-05-09T13:00:45.763Z</time>
      </trkpt>
      <trkpt lat="47.41061" lon="-0.331">
        <ele>64.764239</ele>
        <time>2023-05-09T13:00:48.766Z</time>
      </trkpt>
      <trkpt lat="47.41059" lon="-0.33084">
        <ele>64.762636</ele>
        <time>2023-05-09T13:00:51.767Z</time>
      </trkpt>
      <trkpt lat="47.41058" lon="-0.33067">
        <ele>64.760983</ele>
        <time>2023-05-09T13:00:54.766Z</time>
      </trkpt>
      <trkpt lat="47.41055" lon="-0.3305">
        <ele>64.759238</ele>
        <time>2023-05-09T13:00:57.767Z</time>
      </trkpt>
      <trkpt lat="47.41053" lon="-0.33031">
        <ele>64.757372</ele>
        <time>2023-05-09T13:01:00.766Z</time>
      </trkpt>
      <trkpt lat="47.41051" lon="-0.33011">
        <ele>64.755476</ele>
        <time>2023-05-09T13:01:03.769Z</time>
      </trkpt>
      <trkpt lat="47.41048" lon="-0.32992">
        <ele>64.753551</ele>
        <time>2023-05-09T13:01:06.769Z</time>
      </trkpt>
      <trkpt lat="47.41046" lon="-0.32973">
        <ele>64.751651</ele>
        <time>2023-05-09T13:01:09.769Z</time>
      </trkpt>
      <trkpt lat="47.41044" lon="-0.32954">
        <ele>64.749797</ele>
        <time>2023-05-09T13:01:12.765Z</time>
      </trkpt>
      <trkpt lat="47.41043" lon="-0.32935">
        <ele>64.747953</ele>
        <time>2023-05-09T13:01:15.768Z</time>
      </trkpt>
      <trkpt lat="47.41041" lon="-0.32917">
        <ele>64.746166</ele>
        <time>2023-05-09T13:01:18.764Z</time>
      </trkpt>
      <trkpt lat="47.4104" lon="-0.32899">
        <ele>64.744454</ele>
        <time>2023-05-09T13:01:21.763Z</time>
      </trkpt>
      <trkpt lat="47.41039" lon="-0.32881">
        <ele>64.760624</ele>
        <time>2023-05-09T13:01:24.764Z</time>
      </trkpt>
      <trkpt lat="47.41037" lon="-0.32862">
        <ele>64.822248</ele>
        <time>2023-05-09T13:01:27.768Z</time>
      </trkpt>
      <trkpt lat="47.41036" lon="-0.32848">
        <ele>64.865995</ele>
        <time>2023-05-09T13:01:29.773Z</time>
      </trkpt>
      <trkpt lat="47.41036" lon="-0.32834">
        <ele>64.909529</ele>
        <time>2023-05-09T13:01:31.770Z</time>
      </trkpt>
      <trkpt lat="47.41035" lon="-0.32821">
        <ele>64.952068</ele>
        <time>2023-05-09T13:01:33.771Z</time>
      </trkpt>
      <trkpt lat="47.41034" lon="-0.32807">
        <ele>64.995867</ele>
        <time>2023-05-09T13:01:35.767Z</time>
      </trkpt>
      <trkpt lat="47.41033" lon="-0.32794">
        <ele>65.039425</ele>
        <time>2023-05-09T13:01:37.765Z</time>
      </trkpt>
      <trkpt lat="47.41033" lon="-0.3278">
        <ele>65.082982</ele>
        <time>2023-05-09T13:01:39.765Z</time>
      </trkpt>
      <trkpt lat="47.41031" lon="-0.32762">
        <ele>65.141669</ele>
        <time>2023-05-09T13:01:42.767Z</time>
      </trkpt>
      <trkpt lat="47.41031" lon="-0.32745">
        <ele>65.195672</ele>
        <time>2023-05-09T13:01:45.765Z</time>
      </trkpt>
      <trkpt lat="47.41031" lon="-0.32728">
        <ele>65.248426</ele>
        <time>2023-05-09T13:01:48.764Z</time>
      </trkpt>
      <trkpt lat="47.4103" lon="-0.32712">
        <ele>65.299962</ele>
        <time>2023-05-09T13:01:51.764Z</time>
      </trkpt>
      <trkpt lat="47.41029" lon="-0.32695">
        <ele>65.354811</ele>
        <time>2023-05-09T13:01:54.764Z</time>
      </trkpt>
      <trkpt lat="47.41027" lon="-0.32676">
        <ele>65.414176</ele>
        <time>2023-05-09T13:01:57.771Z</time>
      </trkpt>
      <trkpt lat="47.41027" lon="-0.32663">
        <ele>65.456528</ele>
        <time>2023-05-09T13:01:59.770Z</time>
      </trkpt>
      <trkpt lat="47.41025" lon="-0.32649">
        <ele>65.499504</ele>
        <time>2023-05-09T13:02:01.769Z</time>
      </trkpt>
      <trkpt lat="47.41024" lon="-0.32636">
        <ele>65.542673</ele>
        <time>2023-05-09T13:02:03.772Z</time>
      </trkpt>
      <trkpt lat="47.41023" lon="-0.32622">
        <ele>65.588471</ele>
        <time>2023-05-09T13:02:05.766Z</time>
      </trkpt>
      <trkpt lat="47.41021" lon="-0.32607">
        <ele>65.629379</ele>
        <time>2023-05-09T13:02:07.769Z</time>
      </trkpt>
      <trkpt lat="47.41019" lon="-0.32592">
        <ele>65.67091</ele>
        <time>2023-05-09T13:02:09.767Z</time>
      </trkpt>
      <trkpt lat="47.41018" lon="-0.32578">
        <ele>65.711148</ele>
        <time>2023-05-09T13:02:11.766Z</time>
      </trkpt>
      <trkpt lat="47.41017" lon="-0.32564">
        <ele>65.749787</ele>
        <time>2023-05-09T13:02:13.767Z</time>
      </trkpt>
      <trkpt lat="47.41016" lon="-0.32551">
        <ele>65.787127</ele>
        <time>2023-05-09T13:02:15.769Z</time>
      </trkpt>
      <trkpt lat="47.41015" lon="-0.32531">
        <ele>65.841237</ele>
        <time>2023-05-09T13:02:18.767Z</time>
      </trkpt>
      <trkpt lat="47.41013" lon="-0.32513">
        <ele>65.891745</ele>
        <time>2023-05-09T13:02:21.767Z</time>
      </trkpt>
      <trkpt lat="47.41013" lon="-0.32495">
        <ele>65.942814</ele>
        <time>2023-05-09T13:02:24.770Z</time>
      </trkpt>
      <trkpt lat="47.41011" lon="-0.32475">
        <ele>65.997271</ele>
        <time>2023-05-09T13:02:27.759Z</time>
      </trkpt>
      <trkpt lat="47.4101" lon="-0.32462">
        <ele>66.035374</ele>
        <time>2023-05-09T13:02:29.772Z</time>
      </trkpt>
      <trkpt lat="47.41009" lon="-0.32448">
        <ele>66.072438</ele>
        <time>2023-05-09T13:02:31.769Z</time>
      </trkpt>
      <trkpt lat="47.41007" lon="-0.32435">
        <ele>66.110945</ele>
        <time>2023-05-09T13:02:33.766Z</time>
      </trkpt>
      <trkpt lat="47.41006" lon="-0.32421">
        <ele>66.147653</ele>
        <time>2023-05-09T13:02:35.772Z</time>
      </trkpt>
      <trkpt lat="47.41005" lon="-0.32403">
        <ele>66.199489</ele>
        <time>2023-05-09T13:02:38.767Z</time>
      </trkpt>
      <trkpt lat="47.41003" lon="-0.32384">
        <ele>66.251173</ele>
        <time>2023-05-09T13:02:41.766Z</time>
      </trkpt>
      <trkpt lat="47.41001" lon="-0.32368">
        <ele>66.297615</ele>
        <time>2023-05-09T13:02:44.766Z</time>
      </trkpt>
      <trkpt lat="47.40999" lon="-0.32351">
        <ele>66.380801</ele>
        <time>2023-05-09T13:02:47.755Z</time>
      </trkpt>
      <trkpt lat="47.40997" lon="-0.32336">
        <ele>66.501878</ele>
        <time>2023-05-09T13:02:50.768Z</time>
      </trkpt>
      <trkpt lat="47.40994" lon="-0.32321">
        <ele>66.619453</ele>
        <time>2023-05-09T13:02:53.768Z</time>
      </trkpt>
      <trkpt lat="47.40989" lon="-0.32307">
        <ele>66.735825</ele>
        <time>2023-05-09T13:02:56.766Z</time>
      </trkpt>
      <trkpt lat="47.40985" lon="-0.32293">
        <ele>66.850281</ele>
        <time>2023-05-09T13:02:59.767Z</time>
      </trkpt>
      <trkpt lat="47.4098" lon="-0.32281">
        <ele>66.961145</ele>
        <time>2023-05-09T13:03:02.765Z</time>
      </trkpt>
      <trkpt lat="47.40975" lon="-0.32269">
        <ele>67.069247</ele>
        <time>2023-05-09T13:03:05.767Z</time>
      </trkpt>
      <trkpt lat="47.40966" lon="-0.3226">
        <ele>67.183762</ele>
        <time>2023-05-09T13:03:09.767Z</time>
      </trkpt>
      <trkpt lat="47.4096" lon="-0.32242">
        <ele>67.339465</ele>
        <time>2023-05-09T13:04:38.765Z</time>
      </trkpt>
      <trkpt lat="47.40955" lon="-0.32228">
        <ele>67.454971</ele>
        <time>2023-05-09T13:04:43.768Z</time>
      </trkpt>
      <trkpt lat="47.4095" lon="-0.32216">
        <ele>67.564742</ele>
        <time>2023-05-09T13:04:49.768Z</time>
      </trkpt>
      <trkpt lat="47.40947" lon="-0.32203">
        <ele>67.671262</ele>
        <time>2023-05-09T13:04:54.767Z</time>
      </trkpt>
      <trkpt lat="47.40941" lon="-0.3219">
        <ele>67.782483</ele>
        <time>2023-05-09T13:04:58.762Z</time>
      </trkpt>
      <trkpt lat="47.40936" lon="-0.32176">
        <ele>67.909326</ele>
        <time>2023-05-09T13:05:02.768Z</time>
      </trkpt>
      <trkpt lat="47.40932" lon="-0.32161">
        <ele>68.029382</ele>
        <time>2023-05-09T13:05:05.771Z</time>
      </trkpt>
      <trkpt lat="47.40927" lon="-0.32147">
        <ele>68.152636</ele>
        <time>2023-05-09T13:05:08.765Z</time>
      </trkpt>
      <trkpt lat="47.40922" lon="-0.32133">
        <ele>68.265788</ele>
        <time>2023-05-09T13:05:11.766Z</time>
      </trkpt>
      <trkpt lat="47.40918" lon="-0.32119">
        <ele>68.362238</ele>
        <time>2023-05-09T13:05:14.771Z</time>
      </trkpt>
      <trkpt lat="47.40913" lon="-0.32103">
        <ele>68.434736</ele>
        <time>2023-05-09T13:05:17.766Z</time>
      </trkpt>
      <trkpt lat="47.40908" lon="-0.32088">
        <ele>68.50546</ele>
        <time>2023-05-09T13:05:20.771Z</time>
      </trkpt>
      <trkpt lat="47.40903" lon="-0.32073">
        <ele>68.575321</ele>
        <time>2023-05-09T13:05:23.768Z</time>
      </trkpt>
      <trkpt lat="47.40899" lon="-0.32057">
        <ele>68.647479</ele>
        <time>2023-05-09T13:05:26.766Z</time>
      </trkpt>
      <trkpt lat="47.40896" lon="-0.32039">
        <ele>68.728816</ele>
        <time>2023-05-09T13:05:29.766Z</time>
      </trkpt>
      <trkpt lat="47.40894" lon="-0.32021">
        <ele>68.805693</ele>
        <time>2023-05-09T13:05:32.764Z</time>
      </trkpt>
      <trkpt lat="47.40894" lon="-0.32004">
        <ele>68.876332</ele>
        <time>2023-05-09T13:05:35.768Z</time>
      </trkpt>
      <trkpt lat="47.40893" lon="-0.31989">
        <ele>68.936452</ele>
        <time>2023-05-09T13:05:38.768Z</time>
      </trkpt>
      <trkpt lat="47.40893" lon="-0.31973">
        <ele>69.005569</ele>
        <time>2023-05-09T13:05:42.767Z</time>
      </trkpt>
      <trkpt lat="47.40893" lon="-0.31959">
        <ele>69.065641</ele>
        <time>2023-05-09T13:05:47.766Z</time>
      </trkpt>
      <trkpt lat="47.40901" lon="-0.31968">
        <ele>69.130807</ele>
        <time>2023-05-09T13:06:28.764Z</time>
      </trkpt>
      <trkpt lat="47.40905" lon="-0.31984">
        <ele>69.201059</ele>
        <time>2023-05-09T13:06:32.765Z</time>
      </trkpt>
      <trkpt lat="47.40909" lon="-0.31999">
        <ele>69.269737</ele>
        <time>2023-05-09T13:06:36.763Z</time>
      </trkpt>
      <trkpt lat="47.40915" lon="-0.32013">
        <ele>69.337262</ele>
        <time>2023-05-09T13:06:41.763Z</time>
      </trkpt>
      <trkpt lat="47.4092" lon="-0.32024">
        <ele>69.39362</ele>
        <time>2023-05-09T13:06:52.766Z</time>
      </trkpt>
      <trkpt lat="47.40924" lon="-0.32037">
        <ele>69.457338</ele>
        <time>2023-05-09T13:06:56.765Z</time>
      </trkpt>
      <trkpt lat="47.40932" lon="-0.32046">
        <ele>69.596946</ele>
        <time>2023-05-09T13:07:00.760Z</time>
      </trkpt>
      <trkpt lat="47.40942" lon="-0.32045">
        <ele>69.725382</ele>
        <time>2023-05-09T13:07:03.768Z</time>
      </trkpt>
      <trkpt lat="47.40951" lon="-0.32041">
        <ele>69.858708</ele>
        <time>2023-05-09T13:07:08.752Z</time>
      </trkpt>
      <trkpt lat="47.40903" lon="-0.31974">
        <ele>70.779617</ele>
        <time>2023-05-09T14:07:07.749Z</time>
      </trkpt>
      <trkpt lat="47.34956" lon="-0.22631">
        <ele>76.106421</ele>
        <time>2023-05-09T14:45:27.771Z</time>
      </trkpt>
      <trkpt lat="47.34951" lon="-0.2262">
        <ele>76.157647</ele>
        <time>2023-05-09T14:46:02.753Z</time>
      </trkpt>
      <trkpt lat="47.34945" lon="-0.22606">
        <ele>76.218397</ele>
        <time>2023-05-09T14:46:06.760Z</time>
      </trkpt>
      <trkpt lat="47.3494" lon="-0.22595">
        <ele>76.27278</ele>
        <time>2023-05-09T14:46:09.763Z</time>
      </trkpt>
      <trkpt lat="47.34936" lon="-0.22582">
        <ele>76.308743</ele>
        <time>2023-05-09T14:46:12.758Z</time>
      </trkpt>
      <trkpt lat="47.34932" lon="-0.22569">
        <ele>76.313348</ele>
        <time>2023-05-09T14:46:16.759Z</time>
      </trkpt>
      <trkpt lat="47.34925" lon="-0.22561">
        <ele>76.317891</ele>
        <time>2023-05-09T14:46:23.762Z</time>
      </trkpt>
      <trkpt lat="47.34918" lon="-0.22551">
        <ele>76.322792</ele>
        <time>2023-05-09T14:46:31.758Z</time>
      </trkpt>
      <trkpt lat="47.34912" lon="-0.22539">
        <ele>76.327632</ele>
        <time>2023-05-09T14:46:34.760Z</time>
      </trkpt>
      <trkpt lat="47.26393" lon="-0.09316">
        <ele>82.204212</ele>
        <time>2023-05-09T16:36:08.754Z</time>
      </trkpt>
      <trkpt lat="47.26372" lon="-0.09304">
        <ele>81.713851</ele>
        <time>2023-05-09T16:36:09.741Z</time>
      </trkpt>
      <trkpt lat="47.26344" lon="-0.0934">
        <ele>80.897646</ele>
        <time>2023-05-09T16:36:10.734Z</time>
      </trkpt>
      <trkpt lat="47.26346" lon="-0.09353">
        <ele>80.69392</ele>
        <time>2023-05-09T16:36:11.740Z</time>
      </trkpt>
      <trkpt lat="47.26344" lon="-0.09335">
        <ele>80.412945</ele>
        <time>2023-05-09T16:36:15.743Z</time>
      </trkpt>
      <trkpt lat="47.26344" lon="-0.0932">
        <ele>80.191982</ele>
        <time>2023-05-09T16:36:17.739Z</time>
      </trkpt>
      <trkpt lat="47.2635" lon="-0.09309">
        <ele>79.979088</ele>
        <time>2023-05-09T16:36:27.753Z</time>
      </trkpt>
      <trkpt lat="47.26359" lon="-0.09312">
        <ele>79.77542</ele>
        <time>2023-05-09T16:36:31.752Z</time>
      </trkpt>
      <trkpt lat="47.26359" lon="-0.09326">
        <ele>79.554492</ele>
        <time>2023-05-09T16:36:41.753Z</time>
      </trkpt>
      <trkpt lat="47.26357" lon="-0.09339">
        <ele>79.350293</ele>
        <time>2023-05-09T16:36:46.749Z</time>
      </trkpt>
      <trkpt lat="47.26097" lon="-0.09062">
        <ele>70.411779</ele>
        <time>2023-05-09T17:19:51.751Z</time>
      </trkpt>
      <trkpt lat="47.21839" lon="0.05298">
        <ele>77.458549</ele>
        <time>2023-05-09T19:13:17.794Z</time>
      </trkpt>
      <trkpt lat="47.21837" lon="0.05295">
        <ele>77.458549</ele>
        <time>2023-05-09T19:13:22.943Z</time>
      </trkpt>
    </trkseg>
  </trk>
</gpx>